Home > Products > Valid Products > TAF

000
FTUS41 KOKX 271500 AAA
TAFSWF
TAF AMD
KSWF 271538Z 2716/2818 VRB05KT 3SM -SHSN BKN009
     FM272100 VRB05KT P6SM SCT015 BKN035
     FM280300 28005KT P6SM BKN050
     FM281000 30010KT P6SM FEW120
      AMD NOT SKED=



000
FTUS41 KOKX 271500 AAA
TAFGON
TAF AMD
KGON 271538Z 2716/2812 31006KT P6SM FEW015 OVC050
     FM272000 32006KT P6SM -SHSNRA BKN015 BKN040
     FM280000 34006KT P6SM SCT025 BKN040
     FM280800 34007KT P6SM BKN080=



000
FTUS41 KOKX 271400 AAA
TAFBDR
TAF AMD
KBDR 271449Z 2715/2812 33008KT P6SM FEW025 SCT040 BKN060
     FM271700 32007KT P6SM -SHSN BKN020 BKN040
     FM272100 32008KT P6SM SCT020 BKN040
     FM280500 32008KT P6SM BKN080=



000
FTUS41 KOKX 271400 AAA
TAFISP
TAF AMD
KISP 271443Z 2715/2812 32007KT P6SM -SHSNRA FEW015 SCT040 BKN100
     FM271700 32007KT P6SM -SHRASN BKN015 BKN040
     FM272100 32006KT P6SM SCT015 BKN040
     FM280400 32007KT P6SM BKN080=



000
FTUS41 KOKX 271400 AAA
TAFJFK
TAF AMD
KJFK 271435Z 2715/2818 32009KT P6SM -SHSN BKN015 BKN040
     FM271800 32009KT P6SM -SHSNRA BKN015 BKN040
     FM272000 32009KT P6SM SCT015 BKN040
     FM280500 32010KT P6SM BKN070
     FM281200 32014KT P6SM FEW120=



000
FTUS41 KOKX 271400 AAA
TAFLGA
TAF AMD
KLGA 271435Z 2715/2812 33009KT P6SM -SHSN BKN015 BKN040
     FM271800 33009KT P6SM -SHSNRA BKN015 BKN040
     FM272000 33009KT P6SM SCT015 BKN040
     FM280500 32010KT P6SM BKN080=



000
FTUS41 KOKX 271400 AAA
TAFEWR
TAF AMD
KEWR 271435Z 2715/2818 31007KT P6SM -SHSN BKN015 BKN040
     FM271800 31007KT P6SM -SHSNRA BKN015 BKN040
     FM271900 29006KT P6SM SCT015 BKN040
     FM280500 30008KT P6SM BKN080
     FM281200 31014KT P6SM FEW120=



000
FTUS41 KOKX 271400 AAA
TAFTEB
TAF AMD
KTEB 271435Z 2715/2812 32006KT P6SM -SHSN BKN015 BKN040
     FM271800 32006KT P6SM -SHSNRA BKN015 BKN040
     FM271900 30006KT P6SM SCT015 BKN040
     FM280500 30008KT P6SM BKN080=



000
FTUS41 KOKX 271100
TAFLGA
TAF
KLGA 271136Z 2712/2812 33010KT P6SM FEW020 OVC060
      TEMPO 2712/2714 5SM -SHSN BKN020
     FM271400 33011KT P6SM BKN050
     FM280500 32010KT P6SM BKN080=



000
FTUS41 KOKX 271100
TAFTEB
TAF
KTEB 271136Z 2712/2812 32006KT P6SM FEW019 OVC060
      TEMPO 2712/2714 5SM -SHSN BKN019
     FM271400 32009KT P6SM BKN060
     FM280500 30008KT P6SM BKN080=



000
FTUS41 KOKX 271100
TAFISP
TAF
KISP 271136Z 2712/2812 31009KT P6SM FEW020 OVC080
      TEMPO 2713/2715 5SM -SHSN BKN020
     FM271500 32011KT P6SM BKN060
     FM280400 32007KT P6SM BKN080=



000
FTUS41 KOKX 271100
TAFGON
TAF
KGON 271136Z 2712/2812 31007KT P6SM FEW018 OVC080
      TEMPO 2712/2715 BKN018
     FM271500 32009KT P6SM SCT025 BKN080
      TEMPO 2717/2720 5SM -SHSN BKN025
     FM272000 34006KT P6SM BKN080=



000
FTUS41 KOKX 271100
TAFJFK
TAF
KJFK 271136Z 2712/2818 33011KT P6SM FEW025 BKN040 OVC070
      TEMPO 2712/2714 5SM -SHSN BKN025
     FM271400 32010KT P6SM BKN040
     FM280500 32010KT P6SM BKN070
     FM281200 32014KT P6SM FEW120=



000
FTUS41 KOKX 271100
TAFSWF
TAF
KSWF 271136Z 2712/2818 30005KT P6SM SCT030 BKN080
      TEMPO 2712/2714 4SM -SHSN BKN020 OVC030
     FM271400 32007KT P6SM BKN035
     FM280300 28005KT P6SM BKN050
     FM281000 30010KT P6SM FEW120
      AMD NOT SKED=



000
FTUS41 KOKX 271100
TAFEWR
TAF
KEWR 271136Z 2712/2818 31008KT P6SM FEW020 OVC050
      TEMPO 2712/2714 5SM -SHSN BKN020
     FM271400 31010KT P6SM BKN050
     FM280500 30008KT P6SM BKN080
     FM281200 31014KT P6SM FEW120=



000
FTUS41 KOKX 271100
TAFBDR
TAF
KBDR 271136Z 2712/2812 30009KT P6SM FEW025 OVC080
      TEMPO 2713/2715 5SM -SHSN BKN025
     FM271500 32008KT P6SM BKN080=



000
FTUS41 KOKX 270800 AAA
TAFJFK
TAF AMD
KJFK 270837Z 2709/2812 33012KT P6SM SCT020 BKN070
      TEMPO 2709/2713 BKN020
     FM271300 31010KT P6SM BKN030
     FM280500 32010KT P6SM FEW030 BKN070=



000
FTUS41 KOKX 270800 AAA
TAFGON
TAF AMD
KGON 270837Z 2709/2806 32010KT P6SM OVC070
     FM271300 32009KT P6SM BKN025
     FM271900 33007KT P6SM BKN030=



000
FTUS41 KOKX 270800 AAA
TAFEWR
TAF AMD
KEWR 270837Z 2709/2812 32009KT P6SM FEW018 BKN080
      TEMPO 2709/2713 BKN018
     FM271300 31009KT P6SM BKN030
     FM280500 31008KT P6SM FEW030 BKN080=



000
FTUS41 KOKX 270800 AAA
TAFSWF
TAF AMD
KSWF 270837Z 2709/2812 34008KT P6SM SCT009 OVC020
      TEMPO 2709/2713 BKN009
     FM271300 32006KT P6SM BKN025
     FM271900 33008KT P6SM BKN030
     FM280500 VRB04KT P6SM BKN030
      AMD NOT SKED=



000
FTUS41 KOKX 270800 AAA
TAFBDR
TAF AMD
KBDR 270837Z 2709/2806 32007KT P6SM FEW015 BKN080
      TEMPO 2709/2712 BKN015
     FM271200 32009KT P6SM BKN030=



000
FTUS41 KOKX 270800 AAA
TAFTEB
TAF AMD
KTEB 270837Z 2709/2806 33007KT P6SM FEW020 BKN080
      TEMPO 2709/2713 BKN020
     FM271300 31007KT P6SM BKN030=



000
FTUS41 KOKX 270800 AAA
TAFLGA
TAF AMD
KLGA 270837Z 2709/2806 33014KT P6SM FEW040 BKN070
      TEMPO 2709/2713 BKN030
     FM271300 31010KT P6SM BKN030=



000
FTUS41 KOKX 270800 AAA
TAFISP
TAF AMD
KISP 270837Z 2709/2806 32010KT P6SM FEW015 BKN070
      TEMPO 2709/2712 BKN015
     FM271200 32009KT P6SM BKN030=



000
FTUS41 KOKX 270500
TAFLGA
TAF
KLGA 270531Z 2706/2806 32013KT P6SM BKN040 BKN100
     FM271000 31010KT P6SM BKN030=



000
FTUS41 KOKX 270500
TAFSWF
TAF
KSWF 270531Z 2706/2812 31007KT P6SM BKN025 BKN100
      TEMPO 2706/2707 2SM -SN BKN007
     FM271200 32007KT P6SM BKN025
     FM280500 VRB04KT P6SM BKN030
      AMD NOT SKED=



000
FTUS41 KOKX 270500
TAFGON
TAF
KGON 270531Z 2706/2806 35016G26KT 3SM -RASN OVC012
      TEMPO 2706/2707 2SM -SN BR OVC009
     FM270800 32010KT P6SM OVC025
     FM271200 32007KT P6SM BKN030=



000
FTUS41 KOKX 270500
TAFTEB
TAF
KTEB 270531Z 2706/2806 33009KT P6SM SCT030 BKN100
     FM271000 31005KT P6SM BKN030=



000
FTUS41 KOKX 270500
TAFBDR
TAF
KBDR 270531Z 2706/2806 33013KT P6SM FEW015 BKN040 BKN100
     FM271100 32007KT P6SM BKN030=



000
FTUS41 KOKX 270500
TAFISP
TAF
KISP 270531Z 2706/2806 32010KT P6SM BKN025 BKN100
      TEMPO 2706/2707 4SM -RASN BKN014
     FM271100 31008KT P6SM BKN030=



000
FTUS41 KOKX 270500
TAFJFK
TAF
KJFK 270531Z 2706/2812 33014KT P6SM BKN030 BKN100
     FM270700 34014KT P6SM SCT030 BKN045 BKN100
     FM271000 31010KT P6SM BKN030
     FM280700 31010KT P6SM SCT030 BKN100=



000
FTUS41 KOKX 270500
TAFEWR
TAF
KEWR 270531Z 2706/2812 34011KT P6SM FEW025 BKN045 BKN100
     FM271000 31009KT P6SM BKN030
     FM280700 31009KT P6SM SCT030 BKN100=



000
FTUS41 KOKX 270200 AAB
TAFGON
TAF AMD
KGON 270234Z 2703/2724 35016G26KT 3SM -RASN OVC012
      TEMPO 2703/2707 1SM -SN BR OVC009
     FM270700 32010KT P6SM OVC025
     FM271200 32007KT P6SM BKN030=



000
FTUS41 KOKX 270200 AAA
TAFBDR
TAF AMD
KBDR 270234Z 2703/2724 34014G24KT 4SM -SN BR OVC012
      TEMPO 2703/2706 1SM -SN BR OVC010
     FM270600 33011KT P6SM BKN025
     FM271100 32007KT P6SM BKN030=



000
FTUS41 KOKX 270200 AAA
TAFISP
TAF AMD
KISP 270234Z 2703/2724 33015G25KT 4SM -RASN BR OVC009
      TEMPO 2704/2706 2SM -SN BR
     FM270600 32010KT P6SM BKN025 BKN100
     FM271100 31008KT P6SM BKN030=



000
FTUS41 KOKX 270200 AAA
TAFSWF
TAF AMD
KSWF 270234Z 2703/2806 33012KT 2SM -SN BR OVC003
      TEMPO 2704/2706 P6SM -SN BKN012
     FM270600 31007KT P6SM BKN025 BKN100
     FM271200 32007KT P6SM BKN025
     FM280500 VRB04KT P6SM BKN030
      AMD NOT SKED=



000
FTUS41 KOKX 270200 AAA
TAFTEB
TAF AMD
KTEB 270234Z 2703/2724 33010G17KT 4SM -SN SCT009 OVC012
      TEMPO 2703/2705 1SM -SN BR OVC010
     FM270500 31009KT P6SM BKN030 BKN100
     FM271000 31005KT P6SM BKN030=



000
FTUS41 KOKX 270200 AAA
TAFEWR
TAF AMD
KEWR 270234Z 2703/2806 33012G19KT 6SM -RASN BR SCT010 OVC015
      TEMPO 2703/2705 2SM -SN BR OVC010
     FM270500 31011KT P6SM BKN030 BKN100
     FM271000 31009KT P6SM BKN030=



000
FTUS41 KOKX 270200 AAA
TAFJFK
TAF AMD
KJFK 270234Z 2703/2806 33017G27KT 5SM -RASN OVC012
      TEMPO 2703/2705 2SM -SN BR OVC010
     FM270500 32014KT P6SM BKN030 BKN100
     FM271000 31010KT P6SM BKN030=



000
FTUS41 KOKX 270200 AAA
TAFLGA
TAF AMD
KLGA 270234Z 2703/2724 33015G25KT 4SM -RASN BR SCT008 OVC014
      TEMPO 2703/2705 2SM -SN BR OVC010
     FM270500 32013KT P6SM BKN030 BKN100
     FM271000 31010KT P6SM BKN030=



000
FTUS41 KOKX 270000 AAA
TAFGON
TAF AMD
KGON 270044Z 2701/2724 02025G35KT 5SM -RASN BR OVC012
     FM270300 35018G28KT 6SM -RASN OVC012
      TEMPO 2703/2707 1SM -SN BR OVC008
     FM270700 32010KT P6SM OVC025
     FM271200 32007KT P6SM BKN030=



000
FTUS41 KOKX 262300
TAFLGA
TAF
KLGA 262323Z 2700/2724 35019G29KT 3SM -RA BR OVC012
      TEMPO 2701/2703 1SM -SN BR BKN008
     FM270300 33018G28KT 6SM -SN OVC018
      TEMPO 2703/2705 2SM -SN BR OVC010
     FM270500 32013KT P6SM BKN030 BKN100
     FM271000 31010KT P6SM BKN030=



000
FTUS41 KOKX 262300
TAFBDR
TAF
KBDR 262323Z 2700/2724 36020G30KT 6SM -RA BR OVC012
      TEMPO 2701/2703 1SM -SN BR BKN008
     FM270300 34014G24KT 6SM -SN OVC015
      TEMPO 2703/2706 1SM -SN BR OVC010
     FM270600 33011KT P6SM BKN025
     FM271100 32007KT P6SM BKN030=



000
FTUS41 KOKX 262300
TAFSWF
TAF
KSWF 262323Z 2700/2806 01012G19KT 1SM -SN OVC003
      TEMPO 2700/2703 1/2SM SN FZFG
     FM270300 35012KT 6SM -SN OVC020
     FM270600 31007KT P6SM BKN025 BKN100
     FM271200 32007KT P6SM BKN025
     FM280500 VRB04KT P6SM BKN030
      AMD NOT SKED=



000
FTUS41 KOKX 262300
TAFISP
TAF
KISP 262323Z 2700/2724 36025G35KT 6SM -RA BR OVC009
      TEMPO 2702/2704 1SM -RASN BR
     FM270400 33015G25KT 6SM -RASN OVC010
      TEMPO 2704/2706 1SM -SN BR OVC009
     FM270600 32010KT P6SM BKN025 BKN100
     FM271100 31008KT P6SM BKN030=



000
FTUS41 KOKX 262300
TAFEWR
TAF
KEWR 262323Z 2700/2806 35018G27KT 4SM -RA SCT008 OVC010
      TEMPO 2700/2703 1SM -SN BKN008
     FM270300 33018G28KT 6SM -SN OVC018
      TEMPO 2703/2705 2SM -SN BR OVC010
     FM270500 31011KT P6SM BKN030 BKN100
     FM271000 31009KT P6SM BKN030=



000
FTUS41 KOKX 262300
TAFGON
TAF
KGON 262323Z 2700/2724 02025G35KT 5SM -RA BR OVC012
     FM270300 35018G28KT 6SM -RASN OVC012
      TEMPO 2703/2707 1SM -SN BR OVC008
     FM270700 32010KT P6SM OVC025
     FM271200 32007KT P6SM BKN030=



000
FTUS41 KOKX 262300
TAFTEB
TAF
KTEB 262323Z 2700/2724 34015G23KT 3SM -RA BR OVC010
      TEMPO 2700/2703 1SM -SN BR OVC008
     FM270300 33010G17KT 6SM -SN OVC018
      TEMPO 2703/2705 1SM -SN BR OVC010
     FM270500 31009KT P6SM BKN030 BKN100
     FM271000 31005KT P6SM BKN030=



000
FTUS41 KOKX 262300
TAFJFK
TAF
KJFK 262323Z 2700/2806 35021G30KT 4SM -RA BR OVC012
      TEMPO 2701/2703 1SM -SN BR BKN008
     FM270300 33018G28KT 6SM -SN OVC018
      TEMPO 2703/2705 2SM -SN BR OVC010
     FM270500 32014KT P6SM BKN030 BKN100
     FM271000 31010KT P6SM BKN030=



000
FTUS41 KOKX 262100 AAB
TAFGON
TAF AMD
KGON 262100Z 2621/2718 03016G25KT 1SM RA OVC009
     FM270000 03024G35KT 1SM -SNRA OVC004
      TEMPO 2700/2704 01029G40KT
     FM270500 33018G26KT 6SM -RASN OVC020
     FM270800 32011KT P6SM BKN020
     FM271100 33008KT P6SM BKN040=



000
FTUS41 KOKX 262100 AAA
TAFTEB
TAF AMD
KTEB 262100Z 2621/2718 01012G20KT 1SM -RASN BR OVC006
     FM262200 36018G25KT 1SM -SNRA OVC004
      TEMPO 2623/2701 3/4SM -SNRAPL
     FM270300 33017G25KT 6SM -SN OVC020
     FM270500 31008KT P6SM BKN030
     FM270900 31009KT P6SM BKN050=



000
FTUS41 KOKX 262100 AAA
TAFLGA
TAF AMD
KLGA 262100Z 2621/2718 04015G21KT 2SM -RA BR OVC007
     FM262300 01020G30KT 1 1/2SM -SNRA OVC004
      TEMPO 2623/2701 1SM -SNRAPL
     FM270300 33018G28KT 4SM -RASN OVC020
     FM270500 32010KT P6SM BKN030
     FM271000 31010KT P6SM BKN050=



000
FTUS41 KOKX 262100 AAB
TAFISP
TAF AMD
KISP 262100Z 2621/2718 02016G22KT 3SM -RA BR OVC006
     FM262200 01024G35KT 2SM -RA OVC005
      TEMPO 2622/2702 1SM -RASN
     FM270400 33018G28KT 6SM -RASN OVC015
     FM270800 32013KT P6SM BKN025
     FM271100 31008KT P6SM BKN030=



000
FTUS41 KOKX 262100 AAA
TAFBDR
TAF AMD
KBDR 262100Z 2621/2718 02016G22KT 4SM -RA BR OVC007
     FM262300 01020G30KT 2SM -SNRA OVC005
      TEMPO 2623/2703 3/4SM -SNPL
     FM270400 33017G26KT 6SM -SN OVC015
     FM270800 32012KT P6SM BKN025
     FM271100 31007KT P6SM BKN030=



000
FTUS41 KOKX 262100 AAA
TAFSWF
TAF AMD
KSWF 262100Z 2621/2724 02014KT 3/4SM -SN BR OVC004
      TEMPO 2622/2702 1/2SM SN FZFG
     FM270200 33011KT 4SM -SN OVC020
     FM270700 31006KT P6SM BKN030
     FM271000 31005KT P6SM BKN040
      AMD NOT SKED=



000
FTUS41 KOKX 262100 AAA
TAFEWR
TAF AMD
KEWR 262100Z 2621/2724 01015G21KT 3SM -RA BR OVC006
     FM262300 36018G27KT 1 1/2SM -SNRA OVC004
      TEMPO 2623/2701 3/4SM -SNRAPL
     FM270300 33018G28KT 4SM -SN OVC020
     FM270500 31010KT P6SM BKN030
     FM270900 31009KT P6SM BKN050=



000
FTUS41 KOKX 262100 AAB
TAFJFK
TAF AMD
KJFK 262100Z 2621/2724 02015G21KT 4SM -RA BR OVC006
     FM262300 01021G30KT 2SM -RA OVC005
      TEMPO 2623/2701 1SM -RASNPL
     FM270300 33018G28KT 4SM -SNRA OVC020
     FM270500 32011KT P6SM BKN030
     FM271000 31010KT P6SM BKN050=



000
FTUS41 KOKX 261900 AAA
TAFGON
TAF AMD
KGON 261941Z 2620/2718 03016G25KT 1SM RA OVC009
     FM270000 03024G34KT 1SM -SNRA OVC004
      TEMPO 2700/2704 01029G40KT
     FM270500 33018G26KT 6SM -RASN OVC020
     FM270800 32011KT P6SM BKN020
     FM271100 33008KT P6SM BKN040=



000
FTUS41 KOKX 261900 AAA
TAFJFK
TAF AMD
KJFK 261910Z 2619/2724 02015G21KT 3SM -RASN BR OVC006
     FM262100 01021G30KT 2SM -SNRA OVC004
      TEMPO 2621/2624 1SM -SNRAPL
     FM270300 33018G28KT 6SM -RASN OVC020
     FM270700 32011KT P6SM BKN030
     FM271000 31010KT P6SM BKN050=



000
FTUS41 KOKX 261900 AAA
TAFISP
TAF AMD
KISP 261901Z 2619/2718 02016G22KT 2SM -RA BR OVC006
      TEMPO 2620/2622 1 1/2SM -RAPL
     FM262200 01024G35KT 1SM -SNRA OVC004
      TEMPO 2622/2702 1SM -SNRAPL
     FM270400 33018G28KT 6SM -RASN OVC015
     FM270800 32013KT P6SM BKN025
     FM271100 31008KT P6SM BKN030=



000
FTUS41 KOKX 261700
TAFISP
TAF
KISP 261735Z 2618/2718 02016G22KT 2SM -RASNPL BR OVC006
      TEMPO 2620/2622 1SM +RAPL
     FM262200 01024G35KT 1SM -SNRA OVC004
      TEMPO 2622/2702 1SM -SNRAPL
     FM270400 33018G28KT 6SM -RASN OVC015
     FM270800 32013KT P6SM BKN025
     FM271100 31008KT P6SM BKN030=



000
FTUS41 KOKX 261700
TAFTEB
TAF
KTEB 261735Z 2618/2718 01012G20KT 1SM -SN BR OVC004
     FM262000 36018G25KT 3/4SM -SN OVC003
      TEMPO 2620/2624 3/4SM -SNPL
     FM270200 33017G25KT 6SM -SN OVC020
     FM270600 31008KT P6SM BKN030
     FM270900 31009KT P6SM BKN050=



000
FTUS41 KOKX 261700
TAFGON
TAF
KGON 261735Z 2618/2718 03011G17KT 2SM -RA SCT009 BKN025 OVC040
     FM261900 03016G22KT 1SM -RASNPL OVC009
      TEMPO 2620/2624 3/4SM +RA
     FM270000 03024G35KT 1SM -SNRA OVC004
      TEMPO 2700/2704 01029G40KT
     FM270500 33018G26KT 6SM -RASN OVC020
     FM270800 32011KT P6SM BKN020
     FM271100 33008KT P6SM BKN040=



000
FTUS41 KOKX 261700
TAFEWR
TAF
KEWR 261735Z 2618/2724 01015G21KT 1SM -SNRAPL BR OVC004
     FM262000 36018G27KT 3/4SM -SN OVC004
      TEMPO 2620/2624 3/4SM -SNPL
     FM270200 33018G28KT 4SM -SN OVC020
     FM270600 31010KT P6SM BKN030
     FM270900 31009KT P6SM BKN050=



000
FTUS41 KOKX 261700
TAFSWF
TAF
KSWF 261735Z 2618/2724 03009KT 1/4SM +SN OVC002
     FM262100 02011G18KT 1/2SM SN FZFG OVC004
     FM270200 33011KT 4SM -SN OVC020
     FM270700 31006KT P6SM BKN030
     FM271000 31005KT P6SM BKN040
      AMD NOT SKED=



000
FTUS41 KOKX 261700
TAFJFK
TAF
KJFK 261735Z 2618/2724 02015G21KT 2SM -RASNPL BR OVC006
     FM262000 01021G30KT 1SM -SNRA OVC004
      TEMPO 2620/2624 1SM -SNRAPL
     FM270300 33018G28KT 6SM -RASN OVC020
     FM270700 32011KT P6SM BKN030
     FM271000 31010KT P6SM BKN050=



000
FTUS41 KOKX 261700
TAFLGA
TAF
KLGA 261735Z 2618/2718 04015G21KT 1 1/2SM -SNRAPL BR OVC005
     FM262000 01020G30KT 1SM -SN OVC004
      TEMPO 2620/2624 1SM -SNRAPL
     FM270300 33018G28KT 4SM -RASN OVC020
     FM270700 32010KT P6SM BKN030
     FM271000 31010KT P6SM BKN050=



000
FTUS41 KOKX 261700
TAFBDR
TAF
KBDR 261735Z 2618/2718 02016G22KT 2SM -SN OVC007
     FM262000 01020G30KT 3/4SM -SN OVC004
      TEMPO 2620/2624 3/4SM -SNPL
     FM270400 33017G26KT 6SM -SN OVC015
     FM270800 32012KT P6SM BKN025
     FM271100 31007KT P6SM BKN030=



000
FTUS41 KOKX 261521 AAA
TAFLGA
TAF AMD
KLGA 261521Z 2615/2712 03011G18KT 2SM -RAPL BR BKN007 OVC012
     FM261700 04015G21KT 2SM -SNRA OVC007
     FM262100 01020G30KT 1SM -SN OVC004
     FM270200 33018G28KT 6SM -RASN OVC020
     FM270700 32010KT P6SM BKN030=



000
FTUS41 KOKX 261519 AAA
TAFTEB
TAF AMD
KTEB 261519Z 2615/2712 01009KT 1 1/2SM -SN BR OVC005
     FM261700 01012G20KT 1SM -SN OVC004
     FM262000 36018G25KT 1SM -SN OVC004
     FM270200 33017G25KT 6SM -SN OVC020
     FM270700 31008KT P6SM BKN030=



000
FTUS41 KOKX 261517 AAA
TAFEWR
TAF AMD
KEWR 261517Z 2615/2718 01010KT 2SM -SNRA BR BKN005 OVC010
      TEMPO 2615/2617 2SM -SNPL BR
     FM261700 01015G21KT 2SM -SNRA OVC006
     FM262100 36018G27KT 1SM -SN OVC004
     FM270200 33018G28KT 6SM -SN OVC020
     FM270700 31010KT P6SM BKN030
     FM271200 31008KT P6SM BKN050=



000
FTUS41 KOKX 261514 AAA
TAFGON
TAF AMD
KGON 261514Z 2615/2712 03009KT 2SM RA BR OVC020
     FM261700 03011G17KT 3SM -RA OVC009
     FM261900 03016G22KT 2SM -RASNPL OVC007
      TEMPO 2620/2623 +RA
     FM262300 03024G35KT 1SM -SNRA OVC004
     FM270300 33018G26KT 6SM -RASN OVC015
     FM270800 32013KT P6SM BKN025=



000
FTUS41 KOKX 261400 AAD
TAFISP
TAF AMD
KISP 261458Z 2615/2712 03013G18KT 4SM -RA SCT007 BKN020 OVC060
      TEMPO 2615/2617 2SM -RASNPL BKN007
     FM261700 02016G22KT 2SM -RASNPL OVC007
      TEMPO 2620/2622 +RA
     FM262200 01024G35KT 1SM -SNRA OVC004
     FM270200 33018G28KT 6SM -RASN OVC015
     FM270700 32013KT P6SM BKN025
     FM270900 31008KT P6SM BKN030=



000
FTUS41 KOKX 261400 AAD
TAFJFK
TAF AMD
KJFK 261455Z 2615/2718 03013G19KT 4SM -RA BR OVC008
      TEMPO 2615/2617 2SM RAPL BR
     FM261700 02015G21KT 2SM -RASN BR OVC007
     FM262100 01021G30KT 1SM -SNRA OVC004
     FM270200 33018G28KT 6SM -RASN OVC020
     FM270700 32011KT P6SM BKN030
     FM271200 31008KT P6SM BKN050=



000
FTUS41 KOKX 261400 AAD
TAFTEB
TAF AMD
KTEB 261455Z 2615/2712 02013G19KT 3SM -RASN BR OVC009
      TEMPO 2615/2617 2SM RAPL BR
     FM261700 01015G21KT 2SM -SNRA OVC007
     FM262000 36018G25KT 1SM -SN OVC004
     FM270200 33017G25KT 6SM -SN OVC020
     FM270700 31008KT P6SM BKN030=



000
FTUS41 KOKX 261400 AAD
TAFLGA
TAF AMD
KLGA 261452Z 2615/2712 03013G19KT 4SM -RA BR OVC008
      TEMPO 2615/2617 2SM -RAPL BR
     FM261700 04015G21KT 2SM -SNRA OVC007
     FM262100 01020G30KT 1SM -SN OVC004
     FM270200 33018G28KT 6SM -RASN OVC020
     FM270700 32010KT P6SM BKN030=



000
FTUS41 KOKX 261400 AAC
TAFJFK
TAF AMD
KJFK 261451Z 2615/2718 03013G19KT 4SM -RA BR OVC008
      TEMPO 2615/2617 2SM RA BR
     FM261700 02015G21KT 2SM -RASN BR OVC007
     FM262100 01021G30KT 1SM -SNRA OVC004
     FM270200 33018G28KT 6SM -RASN OVC020
     FM270700 32011KT P6SM BKN030
     FM271200 31008KT P6SM BKN050=



000
FTUS41 KOKX 261400 AAC
TAFISP
TAF AMD
KISP 261451Z 2615/2712 03013G18KT 4SM -RA SCT010 BKN020 OVC060
      TEMPO 2616/2618 3SM -RASNPL BKN010
     FM261800 02016G22KT 2SM -RASNPL OVC007
      TEMPO 2620/2622 +RA
     FM262200 01024G35KT 1SM -SNRA OVC004
     FM270200 33018G28KT 6SM -RASN OVC015
     FM270700 32013KT P6SM BKN025
     FM270900 31008KT P6SM BKN030=



000
FTUS41 KOKX 261400 AAC
TAFLGA
TAF AMD
KLGA 261451Z 2615/2712 03013G19KT 4SM -RA BR OVC008
      TEMPO 2615/2617 2SM -RASN BR
     FM261700 04015G21KT 2SM -SNRA OVC007
     FM262100 01020G30KT 1SM -SN OVC004
     FM270200 33018G28KT 6SM -RASN OVC020
     FM270700 32010KT P6SM BKN030=



000
FTUS41 KOKX 261400 AAB
TAFSWF
TAF AMD
KSWF 261451Z 2615/2718 04010KT 1SM -SN OVC005
      TEMPO 2615/2617 1/2SM SN VV003
     FM261700 03009KT 3/4SM -SN OVC005
     FM262100 02011G18KT 1/2SM SN FZFG OVC004
     FM270200 33011KT 6SM -SN OVC020
     FM270700 31006KT P6SM BKN030
     FM271200 31005KT P6SM BKN040
      AMD NOT SKED=



000
FTUS41 KOKX 261400 AAC
TAFBDR
TAF AMD
KBDR 261451Z 2615/2712 03013G18KT 3SM -RASN OVC015
      TEMPO 2615/2617 2SM -SNRA
     FM261700 02016G22KT 2SM -SN OVC007
     FM262000 01020G30KT 3/4SM -SN OVC004
     FM270200 33017G26KT 6SM -SN OVC015
     FM270700 32012KT P6SM BKN025
     FM270900 31007KT P6SM BKN030=



000
FTUS41 KOKX 261400 AAD
TAFEWR
TAF AMD
KEWR 261451Z 2615/2718 02013G20KT 3SM -RASN BR OVC007
      TEMPO 2615/2616 3SM -RAPL BR
     FM261700 01015G21KT 2SM -SNRA OVC006
     FM262100 36018G27KT 1SM -SN OVC004
     FM270200 33018G28KT 6SM -SN OVC020
     FM270700 31010KT P6SM BKN030
     FM271200 31008KT P6SM BKN050=



000
FTUS41 KOKX 261400 AAC
TAFTEB
TAF AMD
KTEB 261451Z 2615/2712 02013G19KT 3SM -RASN BR OVC009
     FM261700 01015G21KT 2SM -SNRA OVC007
     FM262000 36018G25KT 1SM -SN OVC004
     FM270200 33017G25KT 6SM -SN OVC020
     FM270700 31008KT P6SM BKN030=



000
FTUS41 KOKX 261400 AAB
TAFGON
TAF AMD
KGON 261451Z 2615/2712 02010KT 5SM -RA FEW015 BKN035
      TEMPO 2615/2617 BKN015 OVC050
     FM261700 03011G17KT 4SM -RA OVC009
     FM261900 03016G22KT 2SM -RASNPL OVC007
      TEMPO 2620/2623 +RA
     FM262300 03024G35KT 1SM -SNRA OVC004
     FM270300 33018G26KT 6SM -RASN OVC015
     FM270800 32013KT P6SM BKN025=



000
FTUS41 KOKX 261400 AAC
TAFEWR
TAF AMD
KEWR 261404Z 2614/2718 03012G19KT 5SM -RA BKN015 BKN025 OVC040
      TEMPO 2614/2615 3SM -RAPL BKN008 OVC040
     FM261500 02013G20KT 4SM -RASN OVC009
     FM261700 01015G21KT 2SM -SNRA OVC007
     FM262100 36018G27KT 1SM -SN OVC004
     FM270200 33018G28KT 6SM -SN OVC020
     FM270700 31010KT P6SM BKN030
     FM271200 31008KT P6SM BKN050=



000
FTUS41 KOKX 261300 CCA
TAFBDR
TAF COR
KBDR 261345Z 2614/2712 03010G16KT 5SM -RA SCT015 BKN025 OVC040
      TEMPO 2614/2615 3SM -RASN BKN015 OVC050
     FM261500 03013G18KT 4SM -RASN OVC009
     FM261700 02016G22KT 2SM -SN OVC007
     FM262000 01020G30KT 3/4SM -SN OVC004
     FM270200 33017G26KT 6SM -SN OVC015
     FM270700 32012KT P6SM BKN025
     FM270900 31007KT P6SM BKN030=



000
FTUS41 KOKX 261300 AAB
TAFJFK
TAF AMD
KJFK 261343Z 2614/2718 03012G20KT 4SM -RA SCT015 BKN035 OVC050
      TEMPO 2614/2615 3SM -RA BKN015 OVC030
     FM261500 03013G19KT 4SM -RA OVC009
     FM261700 02015G21KT 2SM -RASN OVC007
     FM262100 01021G30KT 1SM -SNRA OVC004
     FM270200 33018G28KT 6SM -RASN OVC020
     FM270700 32011KT P6SM BKN030
     FM271200 31008KT P6SM BKN050=



000
FTUS41 KOKX 261300 AAB
TAFISP
TAF AMD
KISP 261343Z 2614/2712 03010G16KT 4SM -RA SCT015 BKN035 OVC050
      TEMPO 2614/2615 BKN015 OVC030
     FM261500 03013G18KT 4SM -RA OVC009
     FM261800 02016G22KT 2SM -RASN OVC007
      TEMPO 2620/2622 +RA
     FM262200 01024G35KT 1SM -SNRA OVC004
     FM270200 33018G28KT 6SM -RASN OVC015
     FM270700 32013KT P6SM BKN025
     FM270900 31008KT P6SM BKN030=



000
FTUS41 KOKX 261300 AAB
TAFBDR
TAF AMD
KBDR 261343Z 2614/2712 03010G16KT 6SM -RA SCT015 BKN050
      TEMPO 2614/2615 BKN015 OVC050
     FM261500 03013G18KT 4SM -RASN OVC009
     FM261700 02016G22KT 2SM -SN OVC007
     FM262000 01020G30KT 3/4SM -SN OVC004
     FM270200 33017G26KT 6SM -SN OVC015
     FM270700 32012KT P6SM BKN025
     FM270900 31007KT P6SM BKN030=



000
FTUS41 KOKX 261300 CCA
TAFTEB
TAF COR
KTEB 261329Z 2613/2712 03012KT 5SM -RA SCT015 BKN025 OVC040
      TEMPO 2613/2615 3SM -RA BKN015 OVC040
     FM261500 02013G19KT 4SM -RASN OVC009
     FM261700 01015G21KT 2SM -SNRA OVC007
     FM262000 36018G25KT 1SM -SN OVC004
     FM270200 33017G25KT 6SM -SN OVC020
     FM270700 31008KT P6SM BKN030=



000
FTUS41 KOKX 261300 AAB
TAFTEB
TAF AMD
KTEB 261329Z 2613/2712 03012KT 5SM -RA SCT015 BKN025 OVC040
      TEMPO 2614/2615 3SM -RA BKN015 OVC040
     FM261500 02013G19KT 4SM -RASN OVC009
     FM261700 01015G21KT 2SM -SNRA OVC007
     FM262000 36018G25KT 1SM -SN OVC004
     FM270200 33017G25KT 6SM -SN OVC020
     FM270700 31008KT P6SM BKN030=



000
FTUS41 KOKX 261300 AAB
TAFEWR
TAF AMD
KEWR 261329Z 2613/2718 03012G19KT 5SM -RA SCT015 BKN025 OVC040
      TEMPO 2613/2615 3SM -RA BKN015 OVC040
     FM261500 02013G20KT 4SM -RASN OVC009
     FM261700 01015G21KT 2SM -SNRA OVC007
     FM262100 36018G27KT 1SM -SN OVC004
     FM270200 33018G28KT 6SM -SN OVC020
     FM270700 31010KT P6SM BKN030
     FM271200 31008KT P6SM BKN050=



000
FTUS41 KOKX 261300 AAA
TAFSWF
TAF AMD
KSWF 261321Z 2613/2718 05012KT 5SM -RASN SCT015 BKN025 OVC040
      TEMPO 2613/2615 2SM -SN BKN015 OVC030
     FM261500 04010KT 3SM -SN OVC009
     FM261700 03009KT 1SM -SN OVC006
     FM262100 02011G18KT 1/2SM SN FZFG OVC004
     FM270200 33011KT 6SM -SN OVC020
     FM270700 31006KT P6SM BKN030
     FM271200 31005KT P6SM BKN040
      AMD NOT SKED=



000
FTUS41 KOKX 261300 AAB
TAFLGA
TAF AMD
KLGA 261321Z 2613/2712 03013G18KT 5SM -RA SCT015 BKN025 OVC035
      TEMPO 2613/2615 2SM RA BKN015 OVC040
     FM261500 03013G19KT 4SM -RASN OVC009
     FM261700 04015G21KT 2SM -SNRA OVC007
     FM262100 01020G30KT 1SM -SN OVC004
     FM270200 33018G28KT 6SM -RASN OVC020
     FM270700 32010KT P6SM BKN030=



000
FTUS41 KOKX 261200 AAA
TAFGON
TAF AMD
KGON 261226Z 2612/2712 02010KT 6SM -RA FEW015 BKN050
      TEMPO 2615/2616 BKN015 OVC050
     FM261600 03011G17KT 4SM -RA OVC009
     FM261900 03016G22KT 2SM -RASN OVC007
      TEMPO 2620/2623 +RA
     FM262300 03024G35KT 1SM -SNRA OVC004
     FM270300 33018G26KT 6SM -RASN OVC015
     FM270800 32013KT P6SM BKN025=



000
FTUS41 KOKX 261200 AAA
TAFBDR
TAF AMD
KBDR 261225Z 2612/2712 03010G16KT 6SM -RA SCT015 BKN050
      TEMPO 2614/2615 BKN015 OVC050
     FM261500 03013G18KT 4SM -RASN OVC009
     FM261700 02016G22KT 2SM -SN OVC007
     FM262000 01020G30KT 3/4SM -SN OVC004
     FM270200 33017G26KT 6SM -SN OVC015
     FM270700 32012KT P6SM BKN025
     FM270900 31007KT P6SM BKN030=



000
FTUS41 KOKX 261200 AAA
TAFISP
TAF AMD
KISP 261224Z 2612/2712 03010G16KT 6SM -RA SCT015 BKN050
      TEMPO 2614/2615 BKN015 OVC050
     FM261500 03013G18KT 4SM -RA OVC009
     FM261800 02016G22KT 2SM -RASN OVC007
      TEMPO 2620/2622 +RA
     FM262200 01024G35KT 1SM -SNRA OVC004
     FM270200 33018G28KT 6SM -RASN OVC015
     FM270700 32013KT P6SM BKN025
     FM270900 31008KT P6SM BKN030=



000
FTUS41 KOKX 261200 AAA
TAFTEB
TAF AMD
KTEB 261224Z 2612/2712 03010G16KT 6SM -RA SCT015 BKN040
      TEMPO 2614/2615 BKN015 OVC040
     FM261500 02012G19KT 4SM -RASN OVC009
     FM261700 01015G21KT 2SM -SNRA OVC007
     FM262000 36018G25KT 1SM -SN OVC004
     FM270200 33017G25KT 6SM -SN OVC020
     FM270700 31008KT P6SM BKN030=



000
FTUS41 KOKX 261200 AAA
TAFEWR
TAF AMD
KEWR 261222Z 2612/2718 03010KT 6SM -RA SCT015 BKN040
      TEMPO 2614/2615 BKN015 OVC040
     FM261500 02013G20KT 4SM -RASN OVC009
     FM261700 01015G21KT 2SM -SNRA OVC007
     FM262100 36018G27KT 1SM -SN OVC004
     FM270200 33018G28KT 6SM -SN OVC020
     FM270700 31010KT P6SM BKN030
     FM271200 31008KT P6SM BKN050=



000
FTUS41 KOKX 261200 AAA
TAFJFK
TAF AMD
KJFK 261222Z 2612/2718 03011G16KT 6SM -RA SCT015 BKN040
      TEMPO 2614/2615 BKN015 OVC040
     FM261500 03013G19KT 4SM -RA OVC009
     FM261700 02015G21KT 2SM -RASN OVC007
     FM262100 01021G30KT 1SM -SNRA OVC004
     FM270200 33018G28KT 6SM -RASN OVC020
     FM270700 32011KT P6SM BKN030
     FM271200 31008KT P6SM BKN050=



000
FTUS41 KOKX 261200 AAA
TAFLGA
TAF AMD
KLGA 261222Z 2612/2712 03011G17KT 6SM -RA SCT015 BKN040
      TEMPO 2614/2615 BKN015 OVC040
     FM261500 03013G19KT 4SM -RASN OVC009
     FM261700 04015G21KT 2SM -SNRA OVC007
     FM262100 01020G30KT 1SM -SN OVC004
     FM270200 33018G28KT 6SM -RASN OVC020
     FM270700 32010KT P6SM BKN030=



000
FTUS41 KOKX 261100
TAFTEB
TAF
KTEB 261131Z 2612/2712 36011G17KT 6SM -RA SCT015 BKN050
      TEMPO 2614/2615 BKN015 OVC050
     FM261500 01012G19KT 4SM -RASN OVC009
     FM261700 01015G21KT 2SM -SNRA OVC007
     FM262000 36018G25KT 1SM -SN OVC004
     FM270200 33017G25KT 6SM -SN OVC020
     FM270700 31008KT P6SM BKN030=



000
FTUS41 KOKX 261100
TAFISP
TAF
KISP 261131Z 2612/2712 03012G17KT 6SM -RA SCT015 BKN050
      TEMPO 2614/2615 BKN015 OVC050
     FM261500 03013G18KT 4SM -RA OVC009
     FM261800 02016G22KT 2SM -RASN OVC007
      TEMPO 2620/2622 +RA
     FM262200 01024G35KT 1SM -SNRA OVC004
     FM270200 33018G28KT 6SM -RASN OVC015
     FM270700 32013KT P6SM BKN025
     FM270900 31008KT P6SM BKN030=



000
FTUS41 KOKX 261100
TAFGON
TAF
KGON 261131Z 2612/2712 02011G16KT 6SM -RA SCT015 BKN050
      TEMPO 2614/2616 BKN015 OVC050
     FM261600 04013G18KT 4SM -RA OVC009
     FM261900 03016G22KT 2SM -RASN OVC007
      TEMPO 2620/2623 +RA
     FM262300 03024G35KT 1SM -SNRA OVC004
     FM270300 33018G26KT 6SM -RASN OVC015
     FM270800 32013KT P6SM BKN025=



000
FTUS41 KOKX 261100
TAFEWR
TAF
KEWR 261131Z 2612/2718 36012G18KT 6SM -RA SCT015 BKN050
      TEMPO 2614/2615 BKN015 OVC050
     FM261500 01013G20KT 4SM -RASN OVC009
     FM261700 01015G21KT 2SM -SNRA OVC007
     FM262100 36018G27KT 1SM -SN OVC004
     FM270200 33018G28KT 6SM -SN OVC020
     FM270700 31010KT P6SM BKN030
     FM271200 31008KT P6SM BKN050=



000
FTUS41 KOKX 261100
TAFLGA
TAF
KLGA 261131Z 2612/2712 02011G17KT 6SM -RA SCT015 BKN050
      TEMPO 2614/2615 BKN015 OVC050
     FM261500 03013G19KT 4SM -RASN OVC009
     FM261700 04015G21KT 2SM -SNRA OVC007
     FM262100 01020G30KT 1SM -SN OVC004
     FM270200 33018G28KT 6SM -RASN OVC020
     FM270700 32010KT P6SM BKN030=



000
FTUS41 KOKX 261100
TAFBDR
TAF
KBDR 261131Z 2612/2712 03012G17KT 6SM -RA SCT015 BKN050
      TEMPO 2614/2615 BKN015 OVC050
     FM261500 03013G18KT 4SM -RASN OVC009
     FM261700 02016G22KT 2SM -SN OVC007
     FM262000 01020G30KT 3/4SM -SN OVC004
     FM270200 33017G26KT 6SM -SN OVC015
     FM270700 32012KT P6SM BKN025
     FM270900 31007KT P6SM BKN030=



000
FTUS41 KOKX 261100
TAFSWF
TAF
KSWF 261131Z 2612/2718 04007KT 6SM -RASN SCT015 BKN050
      TEMPO 2614/2615 BKN015 OVC050
     FM261500 04009KT 3SM -SN OVC009
     FM261700 03009KT 1SM -SN OVC006
     FM262100 02011G18KT 1/2SM SN FZFG OVC004
     FM270200 33011KT 6SM -SN OVC020
     FM270700 31006KT P6SM BKN030
     FM271200 31005KT P6SM BKN040
      AMD NOT SKED=



000
FTUS41 KOKX 261100
TAFJFK
TAF
KJFK 261131Z 2612/2718 03011G16KT 6SM -RA SCT015 BKN050
      TEMPO 2614/2615 BKN015 OVC050
     FM261500 03013G19KT 4SM -RA OVC009
     FM261700 02015G21KT 2SM -RASN OVC007
     FM262100 01021G30KT 1SM -SNRA OVC004
     FM270200 33018G28KT 6SM -RASN OVC020
     FM270700 32011KT P6SM BKN030
     FM271200 31008KT P6SM BKN050=



000
FTUS41 KOKX 260800 AAA
TAFBDR
TAF AMD
KBDR 260830Z 2609/2706 01008KT P6SM SCT025 BKN100
     FM261200 03012KT 4SM -RA BKN015 OVC025
     FM261400 03012KT 4SM -RASN OVC009
     FM261600 03012G18KT 2SM -SNRA OVC007
     FM261900 01018G25KT 3/4SM -SN OVC004
     FM270200 33018G25KT 6SM -SHSN OVC030=



000
FTUS41 KOKX 260800 AAA
TAFISP
TAF AMD
KISP 260830Z 2609/2706 02009KT P6SM SCT025 BKN100
     FM261200 04012KT 4SM -RA BKN015 OVC025
     FM261600 03016G23KT 4SM -RA OVC009
     FM261800 01021G31KT 1SM RASN OVC004
      TEMPO 2618/2622 +RASN
     FM262200 01025G35KT 1SM -SNRA OVC004
     FM270200 33018G25KT 6SM -RASN OVC030=



000
FTUS41 KOKX 260800 AAA
TAFJFK
TAF AMD
KJFK 260830Z 2609/2712 36009KT P6SM SCT025 BKN100
     FM261100 02012KT 4SM -RA BKN015 OVC025
     FM261500 03013KT 4SM -RA OVC009
     FM261700 02015G20KT 2SM -RASN OVC007
     FM262100 01021G30KT 1SM -SNRA OVC004
     FM270200 33018G28KT 6SM -RASN OVC030
     FM270700 32011KT P6SM BKN035=



000
FTUS41 KOKX 260800 AAA
TAFSWF
TAF AMD
KSWF 260830Z 2609/2712 36006KT P6SM SCT050 OVC100
     FM261100 04006KT 4SM -SNRA BKN015 OVC025
     FM261300 05007KT 1SM -SN BR OVC009
     FM261600 03009KT 1/2SM SN FG OVC004
     FM262100 03011G18KT 1/2SM SN FZFG OVC004
     FM270200 33011KT 6SM -SHSN OVC030
     FM270600 31007KT P6SM BKN035
      AMD NOT SKED=



000
FTUS41 KOKX 260800 AAA
TAFGON
TAF AMD
KGON 260830Z 2609/2706 01006KT P6SM SCT070 OVC100
     FM261100 01006KT P6SM SCT025 BKN100
     FM261300 03010KT 4SM -RA BKN015 OVC025
     FM261400 04017G24KT 4SM -RA OVC009
     FM261600 04017G24KT 2SM -RA OVC006
     FM261800 03024G35KT 1SM PLSNRA OVC004
      TEMPO 2620/2624 +RA
     FM270300 33018G25KT 6SM -RASN OVC030=



000
FTUS41 KOKX 260800 AAA
TAFEWR
TAF AMD
KEWR 260830Z 2609/2712 36009KT P6SM SCT025 BKN100
     FM261100 01014KT 4SM -RA BKN015 OVC025
     FM261500 02013KT 4SM -SNRA OVC009
     FM261700 01014G19KT 2SM -SNRA OVC007
     FM261900 01018G27KT 1SM -SN OVC004
     FM270200 33015G23KT 6SM -SHSN OVC030
     FM270600 31010KT P6SM BKN035=



000
FTUS41 KOKX 260800 AAA
TAFLGA
TAF AMD
KLGA 260830Z 2609/2706 36010KT P6SM SCT025 BKN100
     FM261100 02012KT 4SM -RA BKN015 OVC025
     FM261500 03013KT 4SM -RASN OVC009
     FM261700 04015KT 2SM -SNRA OVC007
     FM261900 01020G30KT 1SM -SN OVC004
     FM270200 33018G27KT 6SM -SHSN OVC030=



000
FTUS41 KOKX 260800 AAA
TAFTEB
TAF AMD
KTEB 260830Z 2609/2706 36006KT P6SM SCT025 BKN100
     FM261100 36007KT 4SM -RA BKN015 OVC025
     FM261500 02010KT 4SM -SNRA OVC009
     FM261700 01010G15KT 2SM -SN OVC007
     FM261900 01018G25KT 1SM -SN OVC004
     FM270200 33018G25KT 6SM -SHSN OVC030=



000
FTUS41 KOKX 260500
TAFLGA
TAF
KLGA 260527Z 2606/2706 36008KT P6SM SCT070 OVC120
     FM260900 01011KT 6SM -RA OVC025
     FM261100 02012KT 4SM -RA OVC015
     FM261500 03013KT 4SM -RASN OVC009
     FM261700 04015KT 2SM -SN OVC007
     FM261900 01020G30KT 1SM -SN OVC004
     FM270200 33018G27KT 6SM -SHSN OVC030=



000
FTUS41 KOKX 260500
TAFGON
TAF
KGON 260527Z 2606/2706 27007KT P6SM BKN120
     FM260800 01006KT P6SM SCT070 OVC100
     FM261000 01006KT 6SM -RA BKN035
     FM261200 03010KT 4SM -RA OVC015
     FM261400 04017G24KT 4SM -RASN OVC009
     FM261600 04017G24KT 2SM -RASN OVC006
     FM261800 03022G32KT 1SM PLSNRA OVC004
      TEMPO 2620/2624 +RA
     FM270300 33018G25KT 6SM -SHSN OVC030=



000
FTUS41 KOKX 260500
TAFBDR
TAF
KBDR 260527Z 2606/2706 VRB04KT P6SM BKN150
     FM260700 36008KT P6SM SCT070 OVC120
     FM261000 02010KT 6SM -RA OVC025
     FM261200 03012KT 4SM -RA OVC015
     FM261400 03012KT 4SM -SNRA OVC009
     FM261600 03012G18KT 2SM -SN OVC007
     FM261900 01018G25KT 3/4SM -SN OVC004
     FM270200 33018G25KT 6SM -SHSN OVC030=



000
FTUS41 KOKX 260500
TAFSWF
TAF
KSWF 260527Z 2606/2712 36006KT P6SM SCT050 OVC100
     FM261100 04006KT 4SM -SN OVC015
     FM261300 05007KT 1/2SM SN FG OVC007
     FM261600 03009KT 1/2SM SN FG OVC004
     FM262100 03011G18KT 1/2SM SN FZFG OVC004
     FM270200 33011KT 6SM -SHSN OVC030
     FM270600 31007KT P6SM BKN035
      AMD NOT SKED=



000
FTUS41 KOKX 260500
TAFTEB
TAF
KTEB 260527Z 2606/2706 36004KT P6SM SCT070 OVC120
     FM260900 36006KT 6SM -RA OVC025
     FM261100 36007KT 4SM -RA OVC015
     FM261500 02010KT 4SM -SNRA OVC009
     FM261700 01010G15KT 2SM -SN OVC007
     FM261900 01018G25KT 1SM -SN OVC004
     FM270200 33018G25KT 6SM -SHSN OVC030=



000
FTUS41 KOKX 260500
TAFJFK
TAF
KJFK 260527Z 2606/2712 35008KT P6SM SCT070 OVC120
     FM260900 01009KT 6SM -RA OVC025
     FM261100 02012KT 4SM -RA OVC015
     FM261500 03013KT 4SM -RASN OVC009
     FM261700 02015G20KT 2SM -SN OVC007
     FM261900 01020G30KT 1SM -SN OVC004
     FM270200 33018G28KT 6SM -SHSN OVC030
     FM270700 32011KT P6SM BKN035=



000
FTUS41 KOKX 260500
TAFEWR
TAF
KEWR 260527Z 2606/2712 36007KT P6SM SCT070 OVC120
     FM260900 36011KT 6SM -RA OVC025
     FM261100 01014KT 4SM -RA OVC015
     FM261500 02013KT 4SM -SNRA OVC009
     FM261700 01014G19KT 2SM -SN OVC007
     FM261900 01018G27KT 1SM -SN OVC004
     FM270200 33015G23KT 6SM -SHSN OVC030
     FM270600 31010KT P6SM BKN035=



000
FTUS41 KOKX 260500
TAFISP
TAF
KISP 260527Z 2606/2706 VRB05KT P6SM BKN120
     FM260700 01006KT P6SM SCT070 OVC120
     FM261000 03009KT 6SM -RA OVC025
     FM261200 04012KT 4SM -RA OVC015
     FM261600 03016G23KT 4SM -RASN OVC009
     FM261800 01025G35KT 1SM PLSN OVC004
      TEMPO 2618/2622 +RA
     FM270200 33018G25KT 6SM -SHSN OVC030=



000
FTUS41 KOKX 260200 AAA
TAFJFK
TAF AMD
KJFK 260233Z 2603/2706 25007KT P6SM BKN150
     FM260600 35008KT P6SM SCT070 OVC120
     FM260900 01009KT 6SM -RA OVC025
     FM261100 02012KT 4SM -RA OVC015
     FM261500 03013KT 4SM -RASN OVC009
     FM261700 02015G20KT 2SM -SN OVC007
     FM261900 01018G25KT 1SM -SN OVC004
     FM270200 33018G25KT 6SM -SHSN OVC030=



000
FTUS41 KOKX 260200 AAA
TAFGON
TAF AMD
KGON 260233Z 2603/2624 27007KT P6SM BKN120
     FM260800 01006KT P6SM SCT070 OVC100
     FM261000 01006KT 6SM -RA BKN035
     FM261200 03010KT 4SM -RA OVC015
     FM261400 04017G24KT 4SM -RASN OVC009
     FM261600 04017G24KT 2SM -RASN OVC006
     FM261900 03020G30KT 1SM RASN OVC004=



000
FTUS41 KOKX 260200 AAA
TAFSWF
TAF AMD
KSWF 260233Z 2603/2706 VRB03KT P6SM BKN100
     FM260600 36006KT P6SM SCT050 OVC100
     FM261100 04006KT 4SM -SN OVC015
     FM261300 05007KT 1/2SM SN FG OVC007
     FM261600 03009KT 1/2SM SN FG OVC004
     FM262100 03011G18KT 1/2SM SN FZFG OVC004
     FM270200 33011KT 6SM -SHSN OVC030
      AMD NOT SKED=



000
FTUS41 KOKX 260200 AAA
TAFBDR
TAF AMD
KBDR 260233Z 2603/2624 VRB04KT P6SM BKN150
     FM260700 36008KT P6SM SCT070 OVC120
     FM261000 02010KT 6SM -RA OVC025
     FM261200 03012KT 4SM -RA OVC015
     FM261400 03012KT 4SM -SNRA OVC009
     FM261600 03012G18KT 2SM -SN OVC007
     FM261900 01018G25KT 3/4SM -SN OVC004=



000
FTUS41 KOKX 260200 AAA
TAFISP
TAF AMD
KISP 260233Z 2603/2624 VRB05KT P6SM BKN150
     FM260700 01006KT P6SM SCT070 OVC120
     FM261000 03009KT 6SM -RA OVC025
     FM261200 04012KT 4SM -RA OVC015
     FM261600 03016G23KT 4SM -RASN OVC009
     FM261900 01018G28KT 1SM RASN OVC004=



000
FTUS41 KOKX 260200 AAA
TAFEWR
TAF AMD
KEWR 260233Z 2603/2706 25006KT P6SM BKN150
     FM260600 36007KT P6SM SCT070 OVC120
     FM260900 36011KT 6SM -RA OVC025
     FM261100 01014KT 4SM -RA OVC015
     FM261500 02013KT 4SM -SNRA OVC009
     FM261700 01014G19KT 2SM -SN OVC007
     FM261900 01015G23KT 1SM -SN OVC004
     FM270200 33015G23KT 6SM -SHSN OVC030=



000
FTUS41 KOKX 260200 AAA
TAFLGA
TAF AMD
KLGA 260233Z 2603/2624 27007KT P6SM BKN150
     FM260600 36008KT P6SM SCT070 OVC120
     FM260900 01011KT 6SM -RA OVC025
     FM261100 02012KT 4SM -RA OVC015
     FM261500 03013KT 4SM -RASN OVC009
     FM261700 04015KT 2SM -SN OVC007
     FM261900 01018G25KT 1SM -SN OVC004=



000
FTUS41 KOKX 260200 AAA
TAFTEB
TAF AMD
KTEB 260233Z 2603/2624 23005KT P6SM BKN150
     FM260600 36004KT P6SM SCT070 OVC120
     FM260900 36006KT 6SM -RA OVC025
     FM261100 36007KT 4SM -RA OVC015
     FM261500 02010KT 4SM -SNRA OVC009
     FM261700 01010G15KT 2SM -SN OVC007
     FM261900 01018G25KT 1SM -SN OVC004=



000
FTUS41 KOKX 252300
TAFGON
TAF
KGON 252331Z 2600/2624 24006KT P6SM BKN150
     FM260200 32004KT P6SM BKN120
     FM260800 01006KT P6SM SCT070 OVC100
     FM261000 01006KT 6SM -RA BKN035
     FM261200 03010KT 4SM -RA OVC015
     FM261400 04017G24KT 4SM -RASN OVC009
     FM261600 04017G24KT 2SM -RASN OVC006
     FM261900 03020G30KT 1SM RASN OVC004=



000
FTUS41 KOKX 252300
TAFSWF
TAF
KSWF 252331Z 2600/2706 VRB02KT P6SM BKN100
     FM260300 32006KT P6SM BKN100
     FM260700 36006KT P6SM SCT050 OVC100
     FM261100 04006KT 4SM -SN OVC015
     FM261300 05007KT 1/2SM SN FG OVC007
     FM261600 03009KT 1/2SM SN FG OVC004
     FM262100 03011G18KT 1/2SM SN FZFG OVC004
     FM270200 33011KT 6SM -SHSN OVC030
      AMD NOT SKED=



000
FTUS41 KOKX 252300
TAFLGA
TAF
KLGA 252331Z 2600/2624 25007KT P6SM FEW050 BKN150
     FM260200 32007KT P6SM BKN150
     FM260600 36008KT P6SM SCT070 OVC120
     FM260900 01011KT 6SM -RA OVC025
     FM261100 02012KT 4SM -RA OVC015
     FM261500 03013KT 4SM -RASN OVC009
     FM261700 04015KT 2SM -SN OVC007
     FM261900 01018G25KT 1SM -SN OVC004=



000
FTUS41 KOKX 252300
TAFEWR
TAF
KEWR 252331Z 2600/2706 24007KT P6SM FEW060 BKN150
     FM260200 32006KT P6SM BKN150
     FM260600 36007KT P6SM SCT070 OVC120
     FM260900 36011KT 6SM -RA OVC025
     FM261100 01014KT 4SM -RA OVC015
     FM261500 02013KT 4SM -SNRA OVC009
     FM261700 01014G19KT 2SM -SN OVC007
     FM261900 01015G23KT 1SM -SN OVC004
     FM270200 33015G23KT 6SM -SHSN OVC030=



000
FTUS41 KOKX 252300
TAFBDR
TAF
KBDR 252331Z 2600/2624 VRB04KT P6SM BKN150
     FM260400 32004KT P6SM BKN150
     FM260700 36008KT P6SM SCT070 OVC120
     FM261000 02010KT 6SM -RA OVC025
     FM261200 03012KT 4SM -RA OVC015
     FM261400 03012KT 4SM -SNRA OVC009
     FM261600 03012G18KT 2SM -SN OVC007
     FM261900 01018G25KT 3/4SM -SN OVC004=



000
FTUS41 KOKX 252300
TAFTEB
TAF
KTEB 252331Z 2600/2624 21007KT P6SM BKN150
     FM260200 VRB03KT P6SM BKN150
     FM260600 36004KT P6SM SCT070 OVC120
     FM260900 36006KT 6SM -RA OVC025
     FM261100 36007KT 4SM -RA OVC015
     FM261500 02010KT 4SM -SNRA OVC009
     FM261700 01010G15KT 2SM -SN OVC007
     FM261900 01018G25KT 1SM -SN OVC004=



000
FTUS41 KOKX 252300
TAFISP
TAF
KISP 252331Z 2600/2624 VRB04KT P6SM BKN150
     FM260500 36004KT P6SM BKN150
     FM260700 01006KT P6SM SCT070 OVC120
     FM261000 03009KT 6SM -RA OVC025
     FM261200 04012KT 4SM -RA OVC015
     FM261600 03016G23KT 4SM -RASN OVC009
     FM261900 01018G28KT 1SM RASN OVC004=



000
FTUS41 KOKX 252300
TAFJFK
TAF
KJFK 252331Z 2600/2706 24008KT P6SM BKN150
     FM260300 32007KT P6SM BKN150
     FM260600 35008KT P6SM SCT070 OVC120
     FM260900 01009KT 6SM -RA OVC025
     FM261100 02012KT 4SM -RA OVC015
     FM261500 03013KT 4SM -RASN OVC009
     FM261700 02015G20KT 2SM -SN OVC007
     FM261900 01018G25KT 1SM -SN OVC004
     FM270200 33018G25KT 6SM -SHSN OVC030=



000
FTUS41 KOKX 252000 AAA
TAFJFK
TAF AMD
KJFK 252044Z 2521/2624 27010KT P6SM FEW060 SCT150 BKN250
     FM252300 28008KT P6SM BKN250
     FM260300 32007KT P6SM BKN150
     FM260600 35008KT P6SM SCT070 OVC120
     FM260900 01009KT 6SM -RA OVC025
     FM261100 02012KT 4SM -RA OVC015
     FM261500 03013KT 4SM -RASN OVC009
     FM261700 02015G20KT 2SM -SN OVC007
     FM261900 01018G25KT 1SM -SN OVC004=



000
FTUS41 KOKX 252000 AAA
TAFLGA
TAF AMD
KLGA 252044Z 2521/2618 27009KT P6SM SCT050 SCT150 BKN250
     FM260200 32007KT P6SM BKN150
     FM260600 36008KT P6SM SCT070 OVC120
     FM260900 01011KT 6SM -RA OVC025
     FM261100 02012KT 4SM -RA OVC015
     FM261500 03013KT 4SM -RASN OVC009
     FM261700 04015KT 2SM -SN OVC007=



000
FTUS41 KOKX 252000 AAA
TAFTEB
TAF AMD
KTEB 252044Z 2521/2618 26006KT P6SM SCT150 BKN200
     FM260200 VRB03KT P6SM BKN150
     FM260600 36004KT P6SM SCT070 OVC120
     FM260900 36006KT 6SM -RA OVC025
     FM261100 36007KT 4SM -RA OVC015
     FM261500 02010KT 4SM -SNRA OVC009
     FM261700 01010G15KT 2SM -SN OVC007=



000
FTUS41 KOKX 252000 AAA
TAFGON
TAF AMD
KGON 252044Z 2521/2618 25008KT P6SM SCT060 BKN200
     FM260200 32004KT P6SM BKN120
     FM260800 01006KT P6SM SCT070 OVC100
     FM261000 01006KT 6SM -RA BKN035
     FM261200 03010KT 4SM -RA OVC015
     FM261400 04017G24KT 4SM -RASN OVC009
     FM261600 04017G24KT 2SM -RASN OVC006=



000
FTUS41 KOKX 252000 AAA
TAFBDR
TAF AMD
KBDR 252044Z 2521/2618 27005KT P6SM SCT150 BKN250
     FM260400 32004KT P6SM BKN150
     FM260700 36008KT P6SM SCT070 OVC120
     FM261000 02010KT 6SM -RA OVC025
     FM261200 03012KT 4SM -RA OVC015
     FM261400 03012KT 4SM -SNRA OVC009
     FM261600 03012G18KT 2SM -SN OVC007=



000
FTUS41 KOKX 252000 AAA
TAFISP
TAF AMD
KISP 252044Z 2521/2618 27006KT P6SM SCT050 SCT150 BKN200
     FM252300 VRB04KT P6SM BKN250
     FM260500 36004KT P6SM BKN150
     FM260700 01006KT P6SM SCT070 OVC120
     FM261000 03009KT 6SM -RA OVC025
     FM261200 04012KT 4SM -RA OVC015
     FM261600 03016G23KT 4SM -SNRA OVC009=



000
FTUS41 KOKX 252000 AAA
TAFEWR
TAF AMD
KEWR 252044Z 2521/2624 26009KT P6SM SCT060 BKN200
     FM260200 32006KT P6SM BKN150
     FM260600 36007KT P6SM SCT070 OVC120
     FM260900 36011KT 6SM -RA OVC025
     FM261100 01014KT 4SM -RA OVC015
     FM261500 02013KT 4SM -SNRA OVC009
     FM261700 01014G19KT 2SM -SN OVC007
     FM261900 01015G23KT 1SM -SN OVC004=



000
FTUS41 KOKX 251700 RRA
TAFGON
TAF
KGON 251750Z 2518/2618 25009KT P6SM SCT060 SCT150 BKN200
     FM252100 26007KT P6SM FEW150 BKN200
     FM260000 27005KT P6SM BKN200
     FM260300 33004KT P6SM BKN120
     FM260800 01006KT P6SM SCT070 OVC100
     FM261000 01006KT 6SM -RA BKN035
     FM261200 03010KT 4SM -RA OVC015
     FM261400 04017G24KT 4SM -RASN OVC009
     FM261600 04017G24KT 2SM -RASN OVC006=



000
FTUS41 KOKX 251700 RRA
TAFSWF
TAF
KSWF 251745Z 2518/2624 28013G18KT P6SM SCT150 BKN200
     FM252100 27010KT P6SM SCT150 BKN250
     FM252300 29006KT P6SM SCT150 SCT250
     FM260300 32006KT P6SM BKN150
     FM260700 36006KT P6SM SCT050 OVC100
     FM261100 04006KT 4SM -SN OVC015
     FM261300 05007KT 1/2SM SN FG OVC007
     FM261600 03009KT 1/2SM SN FG OVC004
     FM262100 03011G18KT 1/2SM SN FZFG OVC004
      AMD NOT SKED=



000
FTUS41 KOKX 251700
TAFLGA
TAF
KLGA 251739Z 2518/2618 30012G22KT P6SM SCT070 SCT150 BKN200
     FM252000 29010KT P6SM SCT070 BKN200
     FM252300 29009KT P6SM BKN250
     FM260300 33008KT P6SM BKN150
     FM260600 36008KT P6SM SCT070 OVC120
     FM260900 01011KT 6SM -RA OVC025
     FM261100 02012KT 4SM -RA OVC015
     FM261500 03013KT 4SM -RASN OVC009
     FM261700 04015KT 2SM -SN OVC007=



000
FTUS41 KOKX 251700
TAFJFK
TAF
KJFK 251739Z 2518/2624 29012G20KT P6SM SCT060 SCT150 BKN200
     FM252000 27010KT P6SM SCT070 BKN200
     FM252300 29007KT P6SM BKN250
     FM260400 33008KT P6SM BKN150
     FM260600 35008KT P6SM SCT070 OVC120
     FM260900 01009KT 6SM -RA OVC025
     FM261100 02012KT 4SM -RA OVC015
     FM261500 03013KT 4SM -RASN OVC009
     FM261700 02015G20KT 2SM -SN OVC007
     FM261900 01018G25KT 1SM -SN OVC004=



000
FTUS41 KOKX 251700
TAFISP
TAF
KISP 251739Z 2518/2618 29010KT P6SM SCT060 SCT150 BKN200
     FM252100 27007KT P6SM SCT070 BKN200
     FM252300 VRB04KT P6SM BKN250
     FM260500 36004KT P6SM BKN150
     FM260700 01006KT P6SM SCT070 OVC120
     FM261000 03009KT 6SM -RA OVC025
     FM261200 04012KT 4SM -RA OVC015
     FM261600 03016G23KT 4SM -SNRA OVC009=



000
FTUS41 KOKX 251700
TAFEWR
TAF
KEWR 251739Z 2518/2624 27012G20KT P6SM SCT070 BKN200
     FM252000 28009KT P6SM SCT070 BKN200
     FM252300 29006KT P6SM BKN250
     FM260300 33005KT P6SM BKN150
     FM260600 36007KT P6SM SCT070 OVC120
     FM260900 36011KT 6SM -RA OVC025
     FM261100 01014KT 4SM -RA OVC015
     FM261500 02013KT 4SM -SNRA OVC009
     FM261700 01014G19KT 2SM -SN OVC007
     FM261900 01015G23KT 1SM -SN OVC004=



000
FTUS41 KOKX 251700
TAFTEB
TAF
KTEB 251739Z 2518/2618 27008G15KT P6SM SCT070 BKN200
     FM252000 28007KT P6SM SCT070 BKN200
     FM252300 28005KT P6SM BKN250
     FM260300 VRB03KT P6SM BKN150
     FM260600 36004KT P6SM SCT070 OVC120
     FM260900 36006KT 6SM -RA OVC025
     FM261100 36007KT 4SM -RA OVC015
     FM261500 02010KT 4SM -SNRA OVC009
     FM261700 01010G15KT 2SM -SN OVC007=



000
FTUS41 KOKX 251700
TAFBDR
TAF
KBDR 251739Z 2518/2618 30010KT P6SM SCT060 SCT150 BKN200
     FM252100 27007KT P6SM SCT070 BKN200
     FM252300 VRB04KT P6SM BKN250
     FM260500 35004KT P6SM BKN150
     FM260700 36008KT P6SM SCT070 OVC120
     FM261000 02010KT 6SM -RA OVC025
     FM261200 03012KT 4SM -RA OVC015
     FM261400 03012KT 4SM -SNRA OVC009
     FM261600 03012G18KT 2SM -SN OVC007=



000
FTUS41 KOKX 251500 AAA
TAFBDR
TAF AMD
KBDR 251501Z 2515/2612 27009G17KT P6SM SCT070 BKN200
     FM251900 26009KT P6SM SCT070 BKN200
     FM252200 VRB03KT P6SM BKN120 OVC200
     FM261000 01007KT P6SM BKN035 OVC050=



000
FTUS41 KOKX 251500 AAA
TAFGON
TAF AMD
KGON 251501Z 2515/2612 26011G17KT P6SM SCT070 SCT150 BKN200
      TEMPO 2515/2516 6SM HZ
     FM252000 27007KT P6SM SCT070 BKN150
     FM260200 VRB05KT P6SM BKN120 OVC200
     FM260900 36008KT P6SM BKN035 OVC050=



000
FTUS41 KOKX 251500 AAA
TAFISP
TAF AMD
KISP 251500Z 2515/2612 27007KT P6SM SCT150 BKN200
     FM251600 29012G18KT P6SM SCT070 BKN200
     FM252000 27010KT P6SM SCT070 BKN200
     FM252300 VRB04KT P6SM BKN120 OVC200
     FM261000 02008KT P6SM -RA BKN035 OVC050=



000
FTUS41 KOKX 251500 AAA
TAFEWR
TAF AMD
KEWR 251500Z 2515/2618 30012G21KT P6SM SCT060 BKN200
      TEMPO 2515/2516 BKN060
     FM252000 29011KT P6SM SCT070 BKN200
     FM252300 28007KT P6SM BKN150 OVC250
     FM260600 VRB05KT P6SM OVC100
     FM261000 36010KT P6SM BKN035 OVC050
     FM261500 02011KT 2SM -SN BR BKN010 OVC030=



000
FTUS41 KOKX 251500 AAA
TAFTEB
TAF AMD
KTEB 251500Z 2515/2612 27012G18KT P6SM BKN070
     FM251600 28011G17KT P6SM SCT070 BKN200
     FM252000 31009KT P6SM SCT070 BKN200
     FM252200 VRB04KT P6SM BKN120 OVC200
     FM261000 36006KT P6SM BKN035 OVC050=



000
FTUS41 KOKX 251500 AAA
TAFJFK
TAF AMD
KJFK 251500Z 2515/2618 28013G21KT P6SM SCT060 BKN200
      TEMPO 2515/2516 BKN060
     FM252000 27011KT P6SM SCT070 BKN200
     FM252300 29008KT P6SM BKN150 OVC250
     FM260600 VRB05KT P6SM BKN100
     FM261000 01010KT 6SM -RA BKN035 OVC050
     FM261500 03011KT 4SM -RASN BR BKN015 OVC035=



000
FTUS41 KOKX 251500 AAA
TAFLGA
TAF AMD
KLGA 251500Z 2515/2612 30012G20KT P6SM SCT060 SCT150 BKN200
      TEMPO 2515/2516 BKN060
     FM252000 29010KT P6SM SCT070 BKN200
     FM260000 29008KT P6SM BKN150 OVC250
     FM260600 VRB05KT P6SM BKN100
     FM261000 02011KT P6SM BKN035 OVC050=



000
FTUS41 KOKX 251100
TAFLGA
TAF
KLGA 251125Z 2512/2612 27009KT P6SM BKN250
     FM251400 27010G18KT P6SM BKN200
     FM252300 28007KT P6SM BKN150 OVC250
     FM260600 VRB05KT P6SM BKN100
     FM261000 02011KT P6SM BKN035 OVC050=



000
FTUS41 KOKX 251100
TAFGON
TAF
KGON 251125Z 2512/2612 26007KT P6SM BKN250
      TEMPO 2512/2513 4SM BR
     FM251500 28009G18KT P6SM BKN200
     FM252100 27007KT P6SM BKN150 OVC250
     FM260200 VRB05KT P6SM BKN120 OVC200
     FM260900 36008KT P6SM BKN035 OVC050=



000
FTUS41 KOKX 251100
TAFEWR
TAF
KEWR 251125Z 2512/2618 26010KT P6SM BKN250
     FM251400 27011G19KT P6SM BKN200
     FM252300 28007KT P6SM BKN150 OVC250
     FM260600 VRB05KT P6SM OVC100
     FM261000 36010KT P6SM BKN035 OVC050
     FM261500 02011KT 2SM -SN BR BKN010 OVC030=



000
FTUS41 KOKX 251100
TAFTEB
TAF
KTEB 251125Z 2512/2612 27007KT P6SM BKN250
     FM251400 27010G17KT P6SM BKN200
     FM252200 VRB04KT P6SM BKN120 OVC200
     FM261000 36006KT P6SM BKN035 OVC050=



000
FTUS41 KOKX 251100
TAFISP
TAF
KISP 251125Z 2512/2612 26006KT P6SM BKN150 OVC250
      TEMPO 2512/2513 4SM BR
     FM251400 28011G19KT P6SM BKN150 OVC250
     FM252300 VRB04KT P6SM BKN120 OVC200
     FM261000 02008KT P6SM -RA BKN035 OVC050=



000
FTUS41 KOKX 251100
TAFJFK
TAF
KJFK 251125Z 2512/2618 25008KT P6SM BKN250
     FM251400 27012G19KT P6SM BKN200
     FM252300 28008KT P6SM BKN150 OVC250
     FM260600 VRB05KT P6SM BKN100
     FM261000 01010KT 6SM -RA BKN035 OVC050
     FM261500 03011KT 4SM -RASN BR BKN015 OVC035=



000
FTUS41 KOKX 251100
TAFBDR
TAF
KBDR 251125Z 2512/2612 25008KT P6SM BKN250
     FM251400 26009G17KT P6SM BKN200
     FM252200 VRB03KT P6SM BKN120 OVC200
     FM261000 01007KT P6SM BKN035 OVC050=



000
FTUS41 KOKX 251100
TAFSWF
TAF
KSWF 251125Z 2512/2618 26010KT P6SM FEW060 BKN250
     FM251400 28013G20KT P6SM BKN200
     FM252300 VRB04KT P6SM BKN120 OVC200
     FM261100 VRB05KT 6SM -SN BKN035 OVC050
     FM261400 05007KT 1SM -SN BR BKN010 OVC030
      AMD NOT SKED=



000
FTUS41 KOKX 251000 AAD
TAFGON
TAF AMD
KGON 251044Z 2511/2606 25007KT 5SM BR BKN007 WS020/25040KT
      TEMPO 2511/2512 3SM BR BKN004
     FM251200 26008KT P6SM FEW020 BKN250
     FM251500 28010G18KT P6SM BKN250
     FM252300 27009KT P6SM OVC250=



000
FTUS41 KOKX 251000 AAD
TAFGON
TAF AMD
KGON 251044Z 2511/2606 25007KT 5SM BR BKN007 WS020/25040KT
      TEMPO 2511/2512 3SM BR BKN004
     FM251200 26008KT P6SM FEW020 BKN250
     FM251500 28010G18KT P6SM BKN250
     FM252300 27009KT P6SM OVC250=



000
FTUS41 KOKX 251000 AAC
TAFJFK
TAF AMD
KJFK 251027Z 2510/2612 24008KT P6SM BKN250
     FM251400 26013G21KT P6SM BKN250
     FM252300 28009KT P6SM OVC250
     FM260600 VRB05KT P6SM BKN250
     FM261100 01010KT P6SM OVC100=



000
FTUS41 KOKX 251000 AAC
TAFEWR
TAF AMD
KEWR 251026Z 2510/2612 25009KT P6SM BKN250
     FM251400 27012G20KT P6SM BKN250
     FM252300 28007KT P6SM OVC250
     FM260600 VRB05KT P6SM OVC250
     FM261100 01010KT P6SM OVC100=



000
FTUS41 KOKX 251000 AAD
TAFBDR
TAF AMD
KBDR 251026Z 2510/2606 24008KT P6SM BKN250
     FM251400 27009G17KT P6SM BKN250
     FM252300 VRB05KT P6SM OVC250=



000
FTUS41 KOKX 250800 CCA
TAFGON
TAF COR
KGON 250854Z 2508/2606 24007KT 4SM BR BKN002 WS020/25040KT
      TEMPO 2508/2511 2SM BR VV002
     FM251100 25007KT P6SM FEW020 BKN250
     FM251500 28010G18KT P6SM BKN250
     FM252300 27009KT P6SM OVC250=



000
FTUS41 KOKX 250800 AAA
TAFTEB
TAF AMD
KTEB 250853Z 2508/2606 24008KT P6SM BKN250
     FM250900 26008KT P6SM BKN250
     FM251400 27010G18KT P6SM BKN250
     FM252200 VRB04KT P6SM OVC250=



000
FTUS41 KOKX 250800 AAB
TAFJFK
TAF AMD
KJFK 250853Z 2508/2612 18008KT P6SM BKN250
     FM250900 26008KT P6SM BKN250
     FM251400 26013G21KT P6SM BKN250
     FM252300 28009KT P6SM OVC250
     FM260600 VRB05KT P6SM BKN250
     FM261100 01010KT P6SM OVC100=



000
FTUS41 KOKX 250800 AAA
TAFLGA
TAF AMD
KLGA 250853Z 2508/2606 25010KT P6SM BKN250
     FM251400 27011G20KT P6SM BKN250
     FM252300 28009KT P6SM OVC250=



000
FTUS41 KOKX 250800 AAA
TAFSWF
TAF AMD
KSWF 250853Z 2508/2612 26010KT P6SM BKN250
     FM251400 26013G21KT P6SM BKN250
     FM252200 VRB04KT P6SM OVC250
      AMD NOT SKED=



000
FTUS41 KOKX 250800 AAB
TAFEWR
TAF AMD
KEWR 250853Z 2508/2612 26009KT P6SM BKN250
     FM251400 27012G20KT P6SM BKN250
     FM252300 28007KT P6SM OVC250
     FM260600 VRB05KT P6SM OVC250
     FM261100 01010KT P6SM OVC100=



000
FTUS41 KOKX 250800 AAB
TAFISP
TAF AMD
KISP 250853Z 2508/2606 22006KT 6SM BR BKN004
     FM251000 25006KT P6SM SCT040 BKN250
     FM251400 27010G19KT P6SM BKN250
     FM252300 VRB05KT P6SM OVC250=



000
FTUS41 KOKX 250800 AAC
TAFBDR
TAF AMD
KBDR 250853Z 2508/2606 25006KT P6SM BKN250
     FM251400 27009G17KT P6SM BKN250
     FM252300 VRB05KT P6SM OVC250=



000
FTUS41 KOKX 250800 AAC
TAFGON
TAF AMD
KGON 250853Z 2508/2606 24007KT 1 1/2SM BR BKN002 WS020/25040KT
      TEMPO 2508/2511 1/2SM FG VV002
     FM251100 25007KT P6SM FEW020 BKN250
     FM251500 28010G18KT P6SM BKN250
     FM252300 27009KT P6SM OVC250=



000
FTUS41 KOKX 250800 AAB
TAFGON
TAF AMD
KGON 250852Z 2509/2606 24007KT 4SM BR BKN002 WS015/25050KT
      TEMPO 2509/2511 2SM BR VV002
     FM251100 25007KT P6SM FEW020 BKN250
     FM251500 27010G18KT P6SM BKN250
     FM252300 27009KT P6SM OVC250=



000
FTUS41 KOKX 250800 AAB
TAFBDR
TAF AMD
KBDR 250811Z 2508/2606 26006KT P6SM BKN250
     FM251400 29010G18KT P6SM BKN250
     FM252300 VRB05KT P6SM OVC250=



000
FTUS41 KOKX 250700 AAA
TAFGON
TAF AMD
KGON 250735Z 2508/2606 24007KT 1 1/2SM BR BKN002 WS015/25050KT
      TEMPO 2508/2510 1/2SM FG VV002
     FM251000 25007KT P6SM FEW020 BKN250
     FM251500 27010G18KT P6SM BKN250
     FM252300 27009KT P6SM OVC250=



000
FTUS41 KOKX 250700 CCA
TAFBDR
TAF COR
KBDR 250734Z 2507/2606 25007KT P6SM BKN250
      TEMPO 2507/2509 6SM BR BKN002
     FM250900 26006KT P6SM BKN250
     FM251400 29010G18KT P6SM BKN250
     FM252300 VRB05KT P6SM OVC250=



000
FTUS41 KOKX 250700 AAA
TAFJFK
TAF AMD
KJFK 250733Z 2508/2612 18008KT P6SM BKN250
     FM250900 25010KT P6SM BKN250
     FM251400 26013G21KT P6SM BKN250
     FM252300 28009KT P6SM OVC250
     FM260600 VRB05KT P6SM BKN250
     FM261100 01010KT P6SM OVC100=



000
FTUS41 KOKX 250700 AAA
TAFISP
TAF AMD
KISP 250715Z 2507/2606 22006KT 5SM BR BKN002 WS020/26040KT
     FM250900 24007KT P6SM BKN040 BKN250
     FM251400 27010G18KT P6SM BKN250
     FM252300 VRB05KT P6SM OVC250=



000
FTUS41 KOKX 250700 AAA
TAFBDR
TAF AMD
KBDR 250712Z 2507/2606 25007KT P6SM BKN250
      TEMPO 2507/2509 6SM BR BKN003
     FM250900 26006KT P6SM BKN250
     FM251400 29010G18KT P6SM BKN250
     FM252300 VRB05KT P6SM OVC250=



000
FTUS41 KOKX 250600 AAA
TAFEWR
TAF AMD
KEWR 250616Z 2506/2612 24014KT P6SM BKN250
     FM250900 26008KT P6SM BKN250
     FM251400 27012G20KT P6SM BKN250
     FM252300 28007KT P6SM OVC250
     FM260600 VRB05KT P6SM OVC250
     FM261100 01010KT P6SM OVC100=



000
FTUS41 KOKX 250500
TAFLGA
TAF
KLGA 250520Z 2506/2606 24013KT P6SM SCT008 BKN250
     FM250900 25010KT P6SM BKN250
     FM251400 26013G21KT P6SM BKN250
     FM252300 28009KT P6SM OVC250=



000
FTUS41 KOKX 250500
TAFBDR
TAF
KBDR 250520Z 2506/2606 25007KT P6SM BKN250
     FM250900 26006KT P6SM BKN250
     FM251400 29010G18KT P6SM BKN250
     FM252300 VRB05KT P6SM OVC250=



000
FTUS41 KOKX 250500
TAFISP
TAF
KISP 250520Z 2506/2606 21009KT 3/4SM BR BKN002 WS015/25050KT
     FM250800 24007KT P6SM BKN040 BKN250
     FM251400 27010G18KT P6SM BKN250
     FM252300 VRB05KT P6SM OVC250=



000
FTUS41 KOKX 250500
TAFEWR
TAF
KEWR 250520Z 2506/2612 24013KT P6SM BKN250
     FM250900 26008KT P6SM BKN250
     FM251400 27012G20KT P6SM BKN250
     FM252300 28007KT P6SM OVC250
     FM260600 VRB05KT P6SM OVC250
     FM261100 01010KT P6SM OVC100=



000
FTUS41 KOKX 250500
TAFTEB
TAF
KTEB 250520Z 2506/2606 24009KT P6SM BKN250
     FM250900 26008KT P6SM BKN250
     FM251400 27012G20KT P6SM BKN250
     FM252200 VRB04KT P6SM OVC250=



000
FTUS41 KOKX 250500
TAFJFK
TAF
KJFK 250520Z 2506/2612 23014KT P6SM SCT008 BKN250
     FM250900 25010KT P6SM BKN250
     FM251400 26013G21KT P6SM BKN250
     FM252300 28009KT P6SM OVC250
     FM260600 VRB05KT P6SM BKN250
     FM261100 01010KT P6SM OVC100=



000
FTUS41 KOKX 250500
TAFSWF
TAF
KSWF 250520Z 2506/2612 24010G16KT P6SM BKN250
     FM250900 27010KT P6SM BKN250
     FM251400 26013G21KT P6SM BKN250
     FM252200 VRB04KT P6SM OVC250
      AMD NOT SKED=



000
FTUS41 KOKX 250500
TAFGON
TAF
KGON 250520Z 2506/2606 22008KT 4SM BR BKN003 WS015/25050KT
      TEMPO 2506/2509 2SM BR
     FM250900 24007KT P6SM FEW020 BKN250
     FM251500 27010G18KT P6SM BKN250
     FM252300 27009KT P6SM OVC250=



000
FTUS41 KOKX 250400 AAB
TAFGON
TAF AMD
KGON 250424Z 2504/2524 22010KT 4SM BR BKN004 WS016/25050KT
      TEMPO 2506/2509 1SM BR
     FM250900 24007KT P6SM FEW020 BKN250
     FM251500 27010G18KT P6SM BKN250
     FM252300 27009KT P6SM OVC250=



000
FTUS41 KOKX 250400 AAB
TAFSWF
TAF AMD
KSWF 250423Z 2504/2606 25010G15KT P6SM BKN250
     FM251400 26013G21KT P6SM BKN250
     FM252200 VRB04KT P6SM OVC250
      AMD NOT SKED=



000
FTUS41 KOKX 250400 AAB
TAFBDR
TAF AMD
KBDR 250421Z 2504/2524 25007KT P6SM BKN250
     FM250900 26006KT P6SM BKN250
     FM251400 29010G18KT P6SM BKN250
     FM252300 VRB05KT P6SM OVC250=



000
FTUS41 KOKX 250400 AAB
TAFEWR
TAF AMD
KEWR 250420Z 2504/2606 22012KT P6SM BKN250
     FM250900 26008KT P6SM BKN250
     FM251400 27012G20KT P6SM BKN250
     FM252300 28007KT P6SM OVC250=



000
FTUS41 KOKX 250400 AAB
TAFTEB
TAF AMD
KTEB 250420Z 2504/2524 22010KT P6SM BKN250
     FM250900 26008KT P6SM BKN250
     FM251400 27012G20KT P6SM BKN250
     FM252200 VRB04KT P6SM OVC250=



000
FTUS41 KOKX 250400 AAB
TAFLGA
TAF AMD
KLGA 250419Z 2504/2524 24014KT P6SM SCT008 BKN250
     FM250900 25010KT P6SM BKN250
     FM251400 26013G21KT P6SM BKN250
     FM252300 28009KT P6SM OVC250=



000
FTUS41 KOKX 250400 AAB
TAFJFK
TAF AMD
KJFK 250418Z 2504/2606 23014KT P6SM SCT008 BKN250
     FM250900 25010KT P6SM BKN250
     FM251400 26013G21KT P6SM BKN250
     FM252300 28009KT P6SM OVC250=



000
FTUS41 KOKX 250400 AAB
TAFJFK
TAF AMD
KJFK 250418Z 2504/2606 23014KT P6SM SCT008 BKN250
     FM250900 25010KT P6SM BKN250
     FM251400 26013G21KT P6SM BKN250
     FM252300 28009KT P6SM OVC250=



000
FTUS41 KOKX 250400 AAB
TAFISP
TAF AMD
KISP 250412Z 2504/2524 19008KT 1SM BR BKN002 WS016/25050KT
     FM250500 21010KT 3/4SM BR BKN002 WS016/25050KT
     FM250800 24007KT P6SM BKN040 BKN250
     FM251400 27010G18KT P6SM BKN250
     FM252300 VRB05KT P6SM OVC250=



000
FTUS41 KOKX 250200 AAA
TAFGON
TAF AMD
KGON 250234Z 2503/2524 22010KT 4SM BR BKN010 WS016/25050KT
     FM250900 24007KT P6SM FEW020 BKN250
     FM251500 27010G18KT P6SM BKN250
     FM252300 27009KT P6SM OVC250=



000
FTUS41 KOKX 250200 AAA
TAFSWF
TAF AMD
KSWF 250234Z 2503/2606 23011KT P6SM SCT035 WS016/25045KT
     FM250400 25009KT P6SM BKN035 BKN250
     FM251400 26013G21KT P6SM BKN250
     FM252200 VRB04KT P6SM OVC250
      AMD NOT SKED=



000
FTUS41 KOKX 250200 AAA
TAFBDR
TAF AMD
KBDR 250234Z 2503/2524 21010KT P6SM SCT035 WS016/25045KT
     FM250500 25007KT P6SM BKN040 BKN250
     FM250900 26006KT P6SM SCT040 BKN250
     FM251400 29010G18KT P6SM BKN250
     FM252300 VRB05KT P6SM OVC250=



000
FTUS41 KOKX 250200 AAA
TAFISP
TAF AMD
KISP 250234Z 2503/2524 21014G24KT P6SM BKN008 WS016/25050KT
     FM250500 23010KT P6SM BKN008 WS016/25050KT
     FM250800 24007KT P6SM BKN040 BKN250
     FM251400 27010G18KT P6SM BKN250
     FM252300 VRB05KT P6SM OVC250=



000
FTUS41 KOKX 250200 AAA
TAFTEB
TAF AMD
KTEB 250234Z 2503/2524 19009KT P6SM SCT035 BKN250 WS016/25050KT
     FM250500 25010KT P6SM BKN040 BKN250
     FM250900 26008KT P6SM FEW040 BKN250
     FM251400 27012G20KT P6SM BKN250
     FM252200 VRB04KT P6SM OVC250=



000
FTUS41 KOKX 250200 AAA
TAFJFK
TAF AMD
KJFK 250234Z 2503/2606 21014KT P6SM SCT008 BKN250 WS016/25050KT
     FM250500 21014KT P6SM BKN035 BKN250
     FM250900 25010KT P6SM FEW035 BKN250
     FM251400 26013G21KT P6SM BKN250
     FM252300 28009KT P6SM OVC250=



000
FTUS41 KOKX 250200 AAA
TAFEWR
TAF AMD
KEWR 250234Z 2503/2606 20011KT P6SM BKN040 BKN250 WS016/25050KT
     FM250500 25010KT P6SM BKN040 BKN250
     FM250900 26008KT P6SM FEW040 BKN250
     FM251400 27012G20KT P6SM BKN250
     FM252300 28007KT P6SM OVC250=



000
FTUS41 KOKX 250200 AAA
TAFLGA
TAF AMD
KLGA 250234Z 2503/2524 21011KT P6SM SCT008 BKN250 WS016/25050KT
     FM250500 21014KT P6SM BKN035 BKN250
     FM250900 25010KT P6SM FEW035 BKN250
     FM251400 26013G21KT P6SM BKN250
     FM252300 28009KT P6SM OVC250=



000
FTUS41 KOKX 242300
TAFISP
TAF
KISP 242332Z 2500/2524 21014G24KT P6SM SCT008 SCT050 SCT100
      WS016/25050KT
     FM250500 23010KT P6SM BKN040 BKN250 WS016/25050KT
     FM250800 24007KT P6SM BKN040 BKN250
     FM251400 27010G18KT P6SM BKN250
     FM252300 VRB05KT P6SM OVC250=



000
FTUS41 KOKX 242300
TAFEWR
TAF
KEWR 242332Z 2500/2606 20015G26KT P6SM SCT035 WS016/25050KT
     FM250200 23012G20KT P6SM BKN040 BKN250 WS016/25050KT
     FM250500 25010KT P6SM BKN040 BKN250
     FM250900 26008KT P6SM FEW040 BKN250
     FM251400 27012G20KT P6SM BKN250
     FM252300 28007KT P6SM OVC250=



000
FTUS41 KOKX 242300
TAFTEB
TAF
KTEB 242332Z 2500/2524 20014G24KT P6SM SCT040 WS016/25050KT
     FM250200 23012G20KT P6SM BKN040 BKN250 WS016/25050KT
     FM250500 25010KT P6SM BKN040 BKN250
     FM250900 26008KT P6SM FEW040 BKN250
     FM251400 27012G20KT P6SM BKN250
     FM252200 VRB04KT P6SM OVC250=



000
FTUS41 KOKX 242300
TAFSWF
TAF
KSWF 242332Z 2500/2606 23011G19KT P6SM SCT035 WS016/25045KT
     FM250400 25009KT P6SM BKN035 BKN250
     FM251400 26013G21KT P6SM BKN250
     FM252200 VRB04KT P6SM OVC250
      AMD NOT SKED=



000
FTUS41 KOKX 242300
TAFGON
TAF
KGON 242332Z 2500/2524 21014G23KT 5SM BR BKN010 WS016/25050KT
     FM250800 23010KT 3/4SM BR SCT002 BKN250
     FM251000 24007KT P6SM FEW020 BKN250
     FM251500 27010G18KT P6SM BKN250
     FM252300 27009KT P6SM OVC250=



000
FTUS41 KOKX 242300
TAFBDR
TAF
KBDR 242332Z 2500/2524 22011KT P6SM SCT035 WS016/25050KT
     FM250200 21010KT P6SM SCT035 WS016/25045KT
     FM250500 25007KT P6SM BKN040 BKN250
     FM250900 26006KT P6SM SCT040 BKN250
     FM251400 29010G18KT P6SM BKN250
     FM252300 VRB05KT P6SM OVC250=



000
FTUS41 KOKX 242300
TAFJFK
TAF
KJFK 242332Z 2500/2606 19015G24KT P6SM SCT035 SCT100 SCT250
      WS016/25050KT
     FM250300 21014KT P6SM BKN035 BKN250 WS016/25050KT
     FM250500 21014KT P6SM BKN035 BKN250
     FM250900 25010KT P6SM FEW035 BKN250
     FM251400 26013G21KT P6SM BKN250
     FM252300 28009KT P6SM OVC250=



000
FTUS41 KOKX 242300
TAFLGA
TAF
KLGA 242332Z 2500/2524 20014KT P6SM SCT035 SCT100 SCT250
      WS016/25050KT
     FM250300 21014KT P6SM BKN035 BKN250 WS016/25050KT
     FM250500 21014KT P6SM BKN035 BKN250
     FM250900 25010KT P6SM FEW035 BKN250
     FM251400 26013G21KT P6SM BKN250
     FM252300 28009KT P6SM OVC250=



000
FTUS41 KOKX 242200 AAB
TAFSWF
TAF AMD
KSWF 242218Z 2422/2524 22012G24KT P6SM SCT030 BKN040 WS016/25045KT
     FM250000 23011G19KT P6SM SCT035 BKN050 WS016/25045KT
     FM250400 25009KT P6SM BKN035 BKN250
     FM251400 26013G21KT P6SM BKN250
      AMD NOT SKED=



000
FTUS41 KOKX 242200 AAB
TAFEWR
TAF AMD
KEWR 242218Z 2422/2524 20015G26KT P6SM SCT035 BKN250 WS016/25050KT
     FM250200 23012G20KT P6SM BKN040 BKN250 WS016/25050KT
     FM250500 25010KT P6SM BKN040 BKN250
     FM250900 26008KT P6SM FEW040 BKN250
     FM251400 27012G20KT P6SM BKN250=



000
FTUS41 KOKX 242200 AAB
TAFGON
TAF AMD
KGON 242218Z 2422/2518 20013G24KT 1SM BR OVC006 WS016/25050KT
     FM250000 21014G23KT 1/2SM FG BKN004 OVC008 WS016/25050KT
     FM250800 23010KT 3/4SM BR SCT002 BKN250
     FM251000 24007KT P6SM FEW020 BKN250
     FM251500 27010G18KT P6SM BKN250=



000
FTUS41 KOKX 242200 AAC
TAFISP
TAF AMD
KISP 242218Z 2422/2518 21014G24KT P6SM SCT008 SCT030 WS016/25050KT
     FM250500 23010KT P6SM BKN040 BKN250 WS016/25050KT
     FM250800 24007KT P6SM BKN040 BKN250
     FM251400 27010G18KT P6SM BKN250=



000
FTUS41 KOKX 242200 AAC
TAFTEB
TAF AMD
KTEB 242218Z 2422/2518 20014G24KT P6SM SCT020 SCT040 WS016/25050KT
     FM250200 23012G20KT P6SM BKN040 BKN250 WS016/25050KT
     FM250500 25010KT P6SM BKN040 BKN250
     FM250900 26008KT P6SM FEW040 BKN250
     FM251400 27012G20KT P6SM BKN250=



000
FTUS41 KOKX 242200 AAB
TAFLGA
TAF AMD
KLGA 242218Z 2422/2518 20014G22KT P6SM SCT035 BKN250 WS016/25050KT
     FM250300 21014KT P6SM BKN035 BKN250 WS016/25050KT
     FM250500 21014KT P6SM BKN035 BKN250
     FM250900 25010KT P6SM FEW035 BKN250
     FM251400 26013G21KT P6SM BKN250=



000
FTUS41 KOKX 242200 AAC
TAFBDR
TAF AMD
KBDR 242218Z 2422/2518 19013G20KT P6SM SCT008 SCT035 WS016/25050KT
     FM250200 21010KT P6SM SCT035 WS016/25045KT
     FM250500 25007KT P6SM BKN040 BKN250
     FM250900 26006KT P6SM SCT040 BKN250
     FM251400 29010G18KT P6SM BKN250=



000
FTUS41 KOKX 242200 AAB
TAFJFK
TAF AMD
KJFK 242218Z 2422/2524 19015G25KT P6SM SCT035 BKN250 WS016/25050KT
     FM250300 21014KT P6SM BKN035 BKN250 WS016/25050KT
     FM250500 21014KT P6SM BKN035 BKN250
     FM250900 25010KT P6SM FEW035 BKN250
     FM251400 26013G21KT P6SM BKN250=



000
FTUS41 KOKX 242100 AAB
TAFBDR
TAF AMD
KBDR 242149Z 2422/2518 19013G20KT P6SM SCT008 SCT035
     FM250200 21010KT P6SM SCT035
     FM250500 25007KT P6SM BKN040 BKN250
     FM250900 26006KT P6SM SCT040 BKN250
     FM251400 29010G18KT P6SM BKN250=



000
FTUS41 KOKX 242100 AAB
TAFBDR
TAF AMD
KBDR 242149Z 2422/2518 19013G20KT P6SM SCT008 SCT035
     FM250200 21010KT P6SM SCT035
     FM250500 25007KT P6SM BKN040 BKN250
     FM250900 26006KT P6SM SCT040 BKN250
     FM251400 29010G18KT P6SM BKN250=



000
FTUS41 KOKX 242100 AAB
TAFTEB
TAF AMD
KTEB 242147Z 2422/2518 20014G24KT P6SM SCT020 SCT040
     FM250200 23012G20KT P6SM BKN040 BKN250
     FM250500 25010KT P6SM BKN040 BKN250
     FM250900 26008KT P6SM FEW040 BKN250
     FM251400 27012G20KT P6SM BKN250=



000
FTUS41 KOKX 242100 AAB
TAFTEB
TAF AMD
KTEB 242147Z 2422/2518 20014G24KT P6SM SCT020 SCT040
     FM250200 23012G20KT P6SM BKN040 BKN250
     FM250500 25010KT P6SM BKN040 BKN250
     FM250900 26008KT P6SM FEW040 BKN250
     FM251400 27012G20KT P6SM BKN250=



000
FTUS41 KOKX 242000 AAB
TAFISP
TAF AMD
KISP 242053Z 2421/2518 20014G27KT 3SM BR OVC002
     FM242200 21014KT P6SM SCT030
     FM250500 23010KT P6SM BKN040 BKN250
     FM250800 24007KT P6SM BKN040 BKN250
     FM251400 27010G18KT P6SM BKN250=



000
FTUS41 KOKX 241900 AAA
TAFGON
TAF AMD
KGON 241958Z 2420/2518 20013G24KT 1SM BR OVC006
     FM250000 21014G23KT 1/2SM FG BKN004 OVC008
     FM250800 23010KT 3/4SM BR SCT002 BKN250
     FM251000 24007KT P6SM FEW020 BKN250
     FM251500 27010G18KT P6SM BKN250=



000
FTUS41 KOKX 241900 AAA
TAFBDR
TAF AMD
KBDR 241958Z 2420/2518 19016G22KT P6SM OVC008
     FM242200 18013G20KT P6SM BKN015
     FM250200 21010KT P6SM SCT015
     FM250500 25007KT P6SM BKN040 BKN250
     FM250900 26006KT P6SM SCT040 BKN250
     FM251400 29010G18KT P6SM BKN250=



000
FTUS41 KOKX 241900 AAA
TAFISP
TAF AMD
KISP 241958Z 2420/2518 20014G27KT 1/4SM FG OVC002
      TEMPO 2420/2422 1/2SM FG OVC002
     FM242200 21014KT P6SM SCT030
      TEMPO 2422/2423 2SM BR BKN020
     FM250500 23010KT P6SM BKN040 BKN250
     FM250800 24007KT P6SM BKN040 BKN250
     FM251400 27010G18KT P6SM BKN250=



000
FTUS41 KOKX 241900 AAA
TAFJFK
TAF AMD
KJFK 241958Z 2420/2524 19018G24KT P6SM SCT035
     FM242300 19019G27KT P6SM SCT035 BKN250
     FM250300 21014KT P6SM BKN035 BKN250
     FM250900 25010KT P6SM FEW035 BKN250
     FM251400 26013G21KT P6SM BKN250=



000
FTUS41 KOKX 241900 AAA
TAFSWF
TAF AMD
KSWF 241958Z 2420/2524 22012G24KT P6SM SCT030 BKN040
     FM250000 23011G19KT P6SM SCT035 BKN050
     FM250400 25009KT P6SM BKN035 BKN250
     FM251400 26013G21KT P6SM BKN250
      AMD NOT SKED=



000
FTUS41 KOKX 241900 AAA
TAFLGA
TAF AMD
KLGA 241958Z 2420/2518 16016G26KT P6SM SCT035
     FM242300 21014G24KT P6SM SCT035 BKN250
     FM250300 21014KT P6SM BKN035 BKN250
     FM250900 25010KT P6SM FEW035 BKN250
     FM251400 26013G21KT P6SM BKN250=



000
FTUS41 KOKX 241900 AAA
TAFEWR
TAF AMD
KEWR 241958Z 2420/2524 20015G26KT P6SM SCT035 BKN250
     FM250200 23012G20KT P6SM BKN040 BKN250
     FM250500 25010KT P6SM BKN040 BKN250
     FM250900 26008KT P6SM FEW040 BKN250
     FM251400 27012G20KT P6SM BKN250=



000
FTUS41 KOKX 241900 AAA
TAFTEB
TAF AMD
KTEB 241958Z 2420/2518 20014G24KT P6SM SCT020 BKN030
     FM250200 23012G20KT P6SM BKN040 BKN250
     FM250500 25010KT P6SM BKN040 BKN250
     FM250900 26008KT P6SM FEW040 BKN250
     FM251400 27012G20KT P6SM BKN250=



000
FTUS41 KOKX 241700 RRA
TAFEWR
TAF
KEWR 241741Z 2418/2524 19015G26KT P6SM SCT010 BKN025
     FM242000 21018G28KT P6SM SCT015 SCT250
     FM250200 23012G20KT P6SM SCT020 BKN250
     FM250500 25010KT P6SM SCT020 BKN250
     FM250900 26008KT P6SM FEW020 BKN250
     FM251400 27012G20KT P6SM BKN250=



000
FTUS41 KOKX 241700 RRA
TAFLGA
TAF
KLGA 241741Z 2418/2518 19020G28KT P6SM BKN012
      TEMPO 2418/2422 3SM BR BKN006
     FM250000 23014G24KT 5SM BR BKN020 BKN250
     FM250300 21014KT P6SM BKN030 BKN250
     FM250900 25008KT P6SM FEW020 BKN250
     FM251400 26012G20KT P6SM BKN250=



000
FTUS41 KOKX 241700 RRA
TAFJFK
TAF
KJFK 241741Z 2418/2524 19020G30KT 3SM BR SCT002 BKN020
      TEMPO 2418/2422 1/2SM FG BKN002
     FM250000 21017G26KT 5SM BR BKN020 BKN250
     FM250300 21014KT P6SM BKN030 BKN250
     FM250900 25010KT P6SM FEW030 BKN250
     FM251400 26013G21KT P6SM BKN250=



000
FTUS41 KOKX 241700 RRA
TAFISP
TAF
KISP 241741Z 2418/2518 20014G27KT 1SM BR OVC002
      TEMPO 2418/2422 1/4SM FG OVC001
     FM250000 21014KT 1/2SM FG OVC002
     FM250500 23010KT 3/4SM BR SCT002 BKN250
     FM250800 24007KT P6SM FEW020 BKN250
     FM251400 27010G18KT P6SM BKN250=



000
FTUS41 KOKX 241700 RRA
TAFGON
TAF
KGON 241741Z 2418/2518 20013G24KT 1SM BR OVC005
     FM250000 21014G23KT 1/2SM FG BKN002 OVC008
     FM250800 23010KT 3/4SM BR SCT002 BKN250
     FM251000 24007KT P6SM FEW020 BKN250
     FM251500 27010G18KT P6SM BKN250=



000
FTUS41 KOKX 241700 RRA
TAFTEB
TAF
KTEB 241741Z 2418/2518 20014G26KT P6SM SCT020 BKN030
     FM242000 21016G26KT P6SM SCT015 SCT250
     FM250200 23012G20KT P6SM SCT020 BKN250
     FM250500 25010KT P6SM SCT020 BKN250
     FM250900 26006KT P6SM FEW020 BKN250
     FM251400 27012G20KT P6SM BKN250=



000
FTUS41 KOKX 241700 RRA
TAFBDR
TAF
KBDR 241741Z 2418/2518 19016G28KT P6SM SCT015 BKN035
      TEMPO 2418/2422 2SM BR BKN015
     FM242200 18013G27KT 2SM BR SCT002 BKN015
     FM250200 21010G20KT P6SM BKN015
     FM250500 25007KT P6SM SCT020 BKN250
     FM250900 26006KT P6SM FEW020 BKN250
     FM251400 29010G18KT P6SM BKN250=



000
FTUS41 KOKX 241700 RRA
TAFSWF
TAF
KSWF 241741Z 2418/2524 22012G24KT P6SM SCT020 BKN040
     FM250000 23011G19KT P6SM SCT020 BKN050
     FM250400 25009KT P6SM SCT020 BKN250
     FM251400 26013G21KT P6SM BKN250
      AMD NOT SKED=



    US Dept of Commerce
    National Oceanic and Atmospheric Administration
    National Weather Service
    1325 East West Highway
    Silver Spring, MD 20910
    Page Author: NWS Internet Services Team
Disclaimer
Information Quality
Credits
Glossary
Privacy Policy
Freedom of Information Act (FOIA)
About Us
Career Opportunities